Observation data for Mertzon on 07/03/2020      Previous  Date  Next       Current Mesonet Observations  Soil Data  Daily Summary Page  Observations in Plain Language
KME1 030500Z 00000KT 24/19 A3003 RMK A01 T02370188  RH  074%=      5-min Rain = 0
KME1 030501Z 00000KT 24/19 A3003 RMK A01 T02360189  RH  075%=      5-min Rain = 0
KME1 030502Z 00000KT 24/19 A3003 RMK A01 T02350188  RH  075%=      5-min Rain = 0
KME1 030503Z 00000KT 24/19 A3003 RMK A01 T02350189  RH  075%=      5-min Rain = 0
KME1 030504Z 00000KT 23/19 A3003 RMK A01 T02330189  RH  076%=      5-min Rain = 0
KME1 030505Z 00000KT 23/19 A3003 RMK A01 T02330189  RH  076%=      5-min Rain = 0
KME1 030506Z 15000KT 23/19 A3003 RMK A01 T02320189  RH  077%=      5-min Rain = 0
KME1 030507Z 00000KT 23/19 A3003 RMK A01 T02310191  RH  078%=      5-min Rain = 0
KME1 030508Z 00000KT 23/19 A3003 RMK A01 T02310188  RH  077%=      5-min Rain = 0
KME1 030509Z 00000KT 23/19 A3003 RMK A01 T02300187  RH  077%=      5-min Rain = 0
KME1 030510Z 00000KT 23/19 A3003 RMK A01 T02300189  RH  077%=      5-min Rain = 0
KME1 030511Z 00000KT 23/19 A3003 RMK A01 T02300187  RH  077%=      5-min Rain = 0
KME1 030512Z 00000KT 23/19 A3003 RMK A01 T02300186  RH  076%=      5-min Rain = 0
KME1 030513Z 19000KT 23/19 A3003 RMK A01 T02300187  RH  077%=      5-min Rain = 0
KME1 030514Z 00000KT 23/19 A3003 RMK A01 T02300186  RH  076%=      5-min Rain = 0
KME1 030515Z 00000KT 23/19 A3003 RMK A01 T02300189  RH  078%=      5-min Rain = 0
KME1 030516Z 00000KT 23/19 A3003 RMK A01 T02300193  RH  080%=      5-min Rain = 0
KME1 030517Z 00000KT 23/20 A3003 RMK A01 T02300195  RH  081%=      5-min Rain = 0
KME1 030518Z 19000KT 23/20 A3003 RMK A01 T02300196  RH  081%=      5-min Rain = 0
KME1 030519Z 20001KT 23/20 A3003 RMK A01 T02290196  RH  082%=      5-min Rain = 0
KME1 030520Z 24000KT 23/20 A3003 RMK A01 T02280196  RH  082%=      5-min Rain = 0
KME1 030521Z 21001KT 23/20 A3003 RMK A01 T02270197  RH  083%=      5-min Rain = 0
KME1 030522Z 20002KT 23/20 A3003 RMK A01 T02270195  RH  082%=      5-min Rain = 0
KME1 030523Z 21001KT 23/19 A3003 RMK A01 T02250187  RH  079%=      5-min Rain = 0
KME1 030524Z 24001KT 23/19 A3004 RMK A01 T02250188  RH  079%=      5-min Rain = 0
KME1 030525Z 22002KT 23/19 A3004 RMK A01 T02270193  RH  081%=      5-min Rain = 0
KME1 030526Z 22001KT 23/19 A3004 RMK A01 T02280190  RH  079%=      5-min Rain = 0
KME1 030527Z 21002KT 23/19 A3004 RMK A01 T02290187  RH  078%=      5-min Rain = 0
KME1 030528Z 21002KT 23/19 A3004 RMK A01 T02290194  RH  080%=      5-min Rain = 0
KME1 030529Z 21001KT 23/19 A3004 RMK A01 T02290192  RH  080%=      5-min Rain = 0
KME1 030530Z 20001KT 23/19 A3003 RMK A01 T02290194  RH  081%=      5-min Rain = 0
KME1 030531Z 20001KT 23/20 A3003 RMK A01 T02290196  RH  081%=      5-min Rain = 0
KME1 030532Z 19001KT 23/20 A3003 RMK A01 T02280196  RH  082%=      5-min Rain = 0
KME1 030533Z 20002KT 23/20 A3003 RMK A01 T02270196  RH  082%=      5-min Rain = 0
KME1 030534Z 21001KT 23/19 A3003 RMK A01 T02260193  RH  082%=      5-min Rain = 0
KME1 030535Z 18002KT 23/19 A3003 RMK A01 T02260193  RH  082%=      5-min Rain = 0
KME1 030536Z 17002KT 23/19 A3003 RMK A01 T02260194  RH  082%=      5-min Rain = 0
KME1 030537Z 17002KT 23/19 A3003 RMK A01 T02250191  RH  081%=      5-min Rain = 0
KME1 030538Z 19002KT 22/19 A3003 RMK A01 T02240188  RH  080%=      5-min Rain = 0
KME1 030539Z 17002KT 22/19 A3003 RMK A01 T02240191  RH  082%=      5-min Rain = 0
KME1 030540Z 18001KT 22/19 A3003 RMK A01 T02230192  RH  082%=      5-min Rain = 0
KME1 030541Z 18001KT 22/19 A3003 RMK A01 T02230194  RH  084%=      5-min Rain = 0
KME1 030542Z 15001KT 22/20 A3003 RMK A01 T02230196  RH  085%=      5-min Rain = 0
KME1 030543Z 16002KT 22/20 A3003 RMK A01 T02220197  RH  086%=      5-min Rain = 0
KME1 030544Z 17002KT 22/20 A3003 RMK A01 T02220201  RH  088%=      5-min Rain = 0
KME1 030545Z 16002KT 22/20 A3003 RMK A01 T02220204  RH  089%=      5-min Rain = 0
KME1 030546Z 15002KT 22/20 A3003 RMK A01 T02220203  RH  089%=      5-min Rain = 0
KME1 030547Z 15001KT 22/20 A3003 RMK A01 T02210202  RH  089%=      5-min Rain = 0
KME1 030548Z 17001KT 22/20 A3003 RMK A01 T02210204  RH  090%=      5-min Rain = 0
KME1 030549Z 17001KT 22/21 A3003 RMK A01 T02210208  RH  092%=      5-min Rain = 0
KME1 030550Z 17000KT 22/21 A3003 RMK A01 T02210208  RH  092%=      5-min Rain = 0
KME1 030551Z 00000KT 22/21 A3003 RMK A01 T02200208  RH  093%=      5-min Rain = 0
KME1 030552Z 00000KT 22/21 A3003 RMK A01 T02200211  RH  094%=      5-min Rain = 0
KME1 030553Z 03000KT 22/21 A3003 RMK A01 T02200209  RH  094%=      5-min Rain = 0
KME1 030554Z 02001KT 22/21 A3003 RMK A01 T02190209  RH  094%=      5-min Rain = 0
KME1 030555Z 02001KT 22/21 A3003 RMK A01 T02190209  RH  094%=      5-min Rain = 0
KME1 030556Z 03001KT 22/21 A3003 RMK A01 T02190209  RH  094%=      5-min Rain = 0
KME1 030557Z 03001KT 22/21 A3003 RMK A01 T02190209  RH  094%=      5-min Rain = 0
KME1 030558Z 02001KT 22/21 A3003 RMK A01 T02190210  RH  094%=      5-min Rain = 0
KME1 030559Z 02000KT 22/21 A3003 RMK A01 T02190211  RH  095%=      5-min Rain = 0
KME1 030600Z 00000KT 22/21 A3003 RMK A01 T02190210  RH  094%=      5-min Rain = 0
KME1 030601Z 00000KT 22/21 A3003 RMK A01 T02190209  RH  094%=      5-min Rain = 0
KME1 030602Z 05000KT 22/21 A3003 RMK A01 T02190206  RH  092%=      5-min Rain = 0
KME1 030603Z 00000KT 22/20 A3003 RMK A01 T02190202  RH  090%=      5-min Rain = 0
KME1 030604Z 00000KT 22/20 A3003 RMK A01 T02200196  RH  086%=      5-min Rain = 0
KME1 030605Z 00000KT 22/20 A3003 RMK A01 T02210199  RH  087%=      5-min Rain = 0
KME1 030606Z 15000KT 22/20 A3003 RMK A01 T02220197  RH  086%=      5-min Rain = 0
KME1 030607Z 18000KT 22/19 A3003 RMK A01 T02220190  RH  082%=      5-min Rain = 0
KME1 030608Z 16001KT 22/19 A3003 RMK A01 T02230189  RH  081%=      5-min Rain = 0
KME1 030609Z 18001KT 22/18 A3003 RMK A01 T02240184  RH  078%=      5-min Rain = 0
KME1 030610Z 19001KT 23/18 A3003 RMK A01 T02250184  RH  077%=      5-min Rain = 0
KME1 030611Z 20001KT 23/18 A3003 RMK A01 T02270181  RH  075%=      5-min Rain = 0
KME1 030612Z 18002KT 23/18 A3003 RMK A01 T02290182  RH  075%=      5-min Rain = 0
KME1 030613Z 18002KT 23/18 A3003 RMK A01 T02300183  RH  074%=      5-min Rain = 0
KME1 030614Z 18003KT 23/18 A3003 RMK A01 T02310180  RH  073%=      5-min Rain = 0
KME1 030615Z 18003KT 23/18 A3003 RMK A01 T02330180  RH  072%=      5-min Rain = 0
KME1 030616Z 18002KT 23/18 A3003 RMK A01 T02340178  RH  071%=      5-min Rain = 0
KME1 030617Z 18002KT 24/18 A3003 RMK A01 T02350181  RH  071%=      5-min Rain = 0
KME1 030618Z 18003KT 24/18 A3003 RMK A01 T02360183  RH  072%=      5-min Rain = 0
KME1 030619Z 17003KT 24/18 A3003 RMK A01 T02350181  RH  072%=      5-min Rain = 0
KME1 030620Z 18003KT 24/18 A3003 RMK A01 T02360180  RH  071%=      5-min Rain = 0
KME1 030621Z 18003KT 24/18 A3003 RMK A01 T02360178  RH  070%=      5-min Rain = 0
KME1 030622Z 18003KT 24/18 A3002 RMK A01 T02360178  RH  070%=      5-min Rain = 0
KME1 030623Z 19003KT 24/18 A3002 RMK A01 T02370178  RH  070%=      5-min Rain = 0
KME1 030624Z 19003KT 24/18 A3002 RMK A01 T02370178  RH  069%=      5-min Rain = 0
KME1 030625Z 18004KT 24/18 A3002 RMK A01 T02370178  RH  069%=      5-min Rain = 0
KME1 030626Z 18004KT 24/18 A3002 RMK A01 T02380178  RH  069%=      5-min Rain = 0
KME1 030627Z 18004KT 24/18 A3002 RMK A01 T02380175  RH  068%=      5-min Rain = 0
KME1 030628Z 18004KT 24/18 A3002 RMK A01 T02400176  RH  067%=      5-min Rain = 0
KME1 030629Z 18004KT 24/18 A3002 RMK A01 T02410177  RH  067%=      5-min Rain = 0
KME1 030630Z 19004KT 24/18 A3002 RMK A01 T02400178  RH  068%=      5-min Rain = 0
KME1 030631Z 19004KT 24/18 A3002 RMK A01 T02390178  RH  069%=      5-min Rain = 0
KME1 030632Z 20005KT 24/18 A3002 RMK A01 T02380179  RH  069%=      5-min Rain = 0
KME1 030633Z 20005KT 24/18 A3002 RMK A01 T02370178  RH  070%=      5-min Rain = 0
KME1 030634Z 20005KT 24/18 A3002 RMK A01 T02360178  RH  070%=      5-min Rain = 0
KME1 030635Z 20005KT 24/18 A3001 RMK A01 T02350178  RH  070%=      5-min Rain = 0
KME1 030636Z 21006KT 24/18 A3001 RMK A01 T02350178  RH  070%=      5-min Rain = 0
KME1 030637Z 21006KT 24/18 A3001 RMK A01 T02350178  RH  071%=      5-min Rain = 0
KME1 030638Z 21006KT 23/18 A3001 RMK A01 T02340178  RH  071%=      5-min Rain = 0
KME1 030639Z 22005KT 23/18 A3001 RMK A01 T02340178  RH  071%=      5-min Rain = 0
KME1 030640Z 22006KT 23/18 A3001 RMK A01 T02330179  RH  071%=      5-min Rain = 0
KME1 030641Z 22006KT 23/18 A3001 RMK A01 T02330179  RH  072%=      5-min Rain = 0
KME1 030642Z 22006KT 23/18 A3001 RMK A01 T02320178  RH  072%=      5-min Rain = 0
KME1 030643Z 22006KT 23/18 A3001 RMK A01 T02320178  RH  072%=      5-min Rain = 0
KME1 030644Z 22005KT 23/18 A3001 RMK A01 T02330178  RH  072%=      5-min Rain = 0
KME1 030645Z 22005KT 23/18 A3001 RMK A01 T02330179  RH  072%=      5-min Rain = 0
KME1 030646Z 22005KT 23/18 A3001 RMK A01 T02330179  RH  072%=      5-min Rain = 0
KME1 030647Z 22005KT 23/18 A3001 RMK A01 T02330178  RH  072%=      5-min Rain = 0
KME1 030648Z 22005KT 23/18 A3001 RMK A01 T02330178  RH  071%=      5-min Rain = 0
KME1 030649Z 23005KT 23/18 A3001 RMK A01 T02330178  RH  071%=      5-min Rain = 0
KME1 030650Z 22005KT 23/18 A3001 RMK A01 T02330178  RH  071%=      5-min Rain = 0
KME1 030651Z 22004KT 23/18 A3001 RMK A01 T02330179  RH  071%=      5-min Rain = 0
KME1 030652Z 22004KT 23/18 A3001 RMK A01 T02330178  RH  071%=      5-min Rain = 0
KME1 030653Z 21005KT 23/18 A3001 RMK A01 T02330178  RH  071%=      5-min Rain = 0
KME1 030654Z 22004KT 23/18 A3001 RMK A01 T02340177  RH  071%=      5-min Rain = 0
KME1 030655Z 21004KT 23/18 A3001 RMK A01 T02340178  RH  071%=      5-min Rain = 0
KME1 030656Z 21004KT 23/18 A3001 RMK A01 T02340178  RH  071%=      5-min Rain = 0
KME1 030657Z 22004KT 23/18 A3001 RMK A01 T02340178  RH  071%=      5-min Rain = 0
KME1 030658Z 21004KT 23/18 A3001 RMK A01 T02340178  RH  071%=      5-min Rain = 0
KME1 030659Z 21004KT 23/18 A3001 RMK A01 T02340180  RH  071%=      5-min Rain = 0
KME1 030700Z 21004KT 23/18 A3001 RMK A01 T02340179  RH  071%=      5-min Rain = 0
KME1 030701Z 21004KT 23/18 A3001 RMK A01 T02340178  RH  071%=      5-min Rain = 0
KME1 030702Z 21004KT 23/18 A3001 RMK A01 T02340178  RH  071%=      5-min Rain = 0
KME1 030703Z 20004KT 23/18 A3001 RMK A01 T02340178  RH  071%=      5-min Rain = 0
KME1 030704Z 20004KT 23/18 A3001 RMK A01 T02340178  RH  071%=      5-min Rain = 0
KME1 030705Z 20003KT 23/18 A3001 RMK A01 T02340179  RH  071%=      5-min Rain = 0
KME1 030706Z 20003KT 23/18 A3001 RMK A01 T02340179  RH  071%=      5-min Rain = 0
KME1 030707Z 20004KT 23/18 A3001 RMK A01 T02340179  RH  071%=      5-min Rain = 0
KME1 030708Z 20004KT 23/18 A3001 RMK A01 T02340179  RH  071%=      5-min Rain = 0
KME1 030709Z 20004KT 23/18 A3001 RMK A01 T02340179  RH  071%=      5-min Rain = 0
KME1 030710Z 20004KT 23/18 A3001 RMK A01 T02340178  RH  071%=      5-min Rain = 0
KME1 030711Z 20004KT 24/18 A3001 RMK A01 T02350179  RH  071%=      5-min Rain = 0
KME1 030712Z 20004KT 24/18 A3001 RMK A01 T02350180  RH  071%=      5-min Rain = 0
KME1 030713Z 20005KT 24/18 A3001 RMK A01 T02350180  RH  071%=      5-min Rain = 0
KME1 030714Z 20004KT 24/18 A3001 RMK A01 T02350179  RH  071%=      5-min Rain = 0
KME1 030715Z 20005KT 24/18 A3001 RMK A01 T02350179  RH  071%=      5-min Rain = 0
KME1 030716Z 20005KT 24/18 A3001 RMK A01 T02360178  RH  070%=      5-min Rain = 0
KME1 030717Z 20005KT 24/18 A3001 RMK A01 T02370178  RH  069%=      5-min Rain = 0
KME1 030718Z 19005KT 24/18 A3001 RMK A01 T02380179  RH  069%=      5-min Rain = 0
KME1 030719Z 20005KT 24/18 A3001 RMK A01 T02390179  RH  069%=      5-min Rain = 0
KME1 030720Z 19005KT 24/18 A3001 RMK A01 T02390179  RH  069%=      5-min Rain = 0
KME1 030721Z 19004KT 24/18 A3001 RMK A01 T02400179  RH  069%=      5-min Rain = 0
KME1 030722Z 19004KT 24/18 A3001 RMK A01 T02400179  RH  069%=      5-min Rain = 0
KME1 030723Z 19005KT 24/18 A3001 RMK A01 T02400178  RH  068%=      5-min Rain = 0
KME1 030724Z 19004KT 24/18 A3001 RMK A01 T02410178  RH  068%=      5-min Rain = 0
KME1 030725Z 19005KT 24/18 A3001 RMK A01 T02410179  RH  068%=      5-min Rain = 0
KME1 030726Z 20006KT 24/18 A3001 RMK A01 T02410179  RH  068%=      5-min Rain = 0
KME1 030727Z 20005KT 24/18 A3001 RMK A01 T02410179  RH  068%=      5-min Rain = 0
KME1 030728Z 20005KT 24/18 A3001 RMK A01 T02400180  RH  069%=      5-min Rain = 0
KME1 030729Z 20005KT 24/18 A3001 RMK A01 T02390180  RH  069%=      5-min Rain = 0
KME1 030730Z 20005KT 24/18 A3001 RMK A01 T02390179  RH  069%=      5-min Rain = 0
KME1 030731Z 21005KT 24/18 A3001 RMK A01 T02390179  RH  069%=      5-min Rain = 0
KME1 030732Z 21005KT 24/18 A3001 RMK A01 T02390180  RH  069%=      5-min Rain = 0
KME1 030733Z 21005KT 24/18 A3001 RMK A01 T02380180  RH  070%=      5-min Rain = 0
KME1 030734Z 21005KT 24/18 A3001 RMK A01 T02370180  RH  070%=      5-min Rain = 0
KME1 030735Z 21005KT 24/18 A3001 RMK A01 T02370180  RH  070%=      5-min Rain = 0
KME1 030736Z 21005KT 24/18 A3001 RMK A01 T02370179  RH  070%=      5-min Rain = 0
KME1 030737Z 20005KT 24/18 A3001 RMK A01 T02370179  RH  070%=      5-min Rain = 0
KME1 030738Z 20004KT 24/18 A3001 RMK A01 T02370179  RH  070%=      5-min Rain = 0
KME1 030739Z 20004KT 24/18 A3001 RMK A01 T02370179  RH  070%=      5-min Rain = 0
KME1 030740Z 20004KT 24/18 A3001 RMK A01 T02370179  RH  070%=      5-min Rain = 0
KME1 030741Z 20003KT 24/18 A3001 RMK A01 T02370179  RH  070%=      5-min Rain = 0
KME1 030742Z 20003KT 24/18 A3001 RMK A01 T02380180  RH  070%=      5-min Rain = 0
KME1 030743Z 20004KT 24/18 A3001 RMK A01 T02370179  RH  070%=      5-min Rain = 0
KME1 030744Z 20004KT 24/18 A3001 RMK A01 T02370180  RH  070%=      5-min Rain = 0
KME1 030745Z 21004KT 24/18 A3001 RMK A01 T02370180  RH  070%=      5-min Rain = 0
KME1 030746Z 20004KT 24/18 A3001 RMK A01 T02360180  RH  071%=      5-min Rain = 0
KME1 030747Z 20004KT 24/18 A3001 RMK A01 T02360180  RH  071%=      5-min Rain = 0
KME1 030748Z 21004KT 24/18 A3001 RMK A01 T02360181  RH  071%=      5-min Rain = 0
KME1 030749Z 21004KT 24/18 A3001 RMK A01 T02350181  RH  072%=      5-min Rain = 0
KME1 030750Z 20004KT 24/18 A3001 RMK A01 T02350181  RH  072%=      5-min Rain = 0
KME1 030751Z 21004KT 23/18 A3001 RMK A01 T02340181  RH  072%=      5-min Rain = 0
KME1 030752Z 21004KT 23/18 A3001 RMK A01 T02340181  RH  072%=      5-min Rain = 0
KME1 030753Z 21004KT 23/18 A3001 RMK A01 T02330182  RH  073%=      5-min Rain = 0
KME1 030754Z 22004KT 23/18 A3001 RMK A01 T02330181  RH  073%=      5-min Rain = 0
KME1 030755Z 22004KT 23/18 A3001 RMK A01 T02330181  RH  073%=      5-min Rain = 0
KME1 030756Z 21003KT 23/18 A3001 RMK A01 T02330181  RH  072%=      5-min Rain = 0
KME1 030757Z 22003KT 23/18 A3001 RMK A01 T02330181  RH  073%=      5-min Rain = 0
KME1 030758Z 22003KT 23/18 A3001 RMK A01 T02330181  RH  073%=      5-min Rain = 0
KME1 030759Z 22003KT 23/18 A3001 RMK A01 T02330181  RH  073%=      5-min Rain = 0
KME1 030800Z 22004KT 23/18 A3001 RMK A01 T02330181  RH  073%=      5-min Rain = 0
KME1 030801Z 21004KT 23/18 A3001 RMK A01 T02330181  RH  073%=      5-min Rain = 0
KME1 030802Z 21004KT 23/18 A3001 RMK A01 T02340181  RH  072%=      5-min Rain = 0
KME1 030803Z 22004KT 23/18 A3001 RMK A01 T02340181  RH  072%=      5-min Rain = 0
KME1 030804Z 22004KT 23/18 A3001 RMK A01 T02340181  RH  072%=      5-min Rain = 0
KME1 030805Z 21004KT 24/18 A3001 RMK A01 T02350183  RH  073%=      5-min Rain = 0
KME1 030806Z 21004KT 24/18 A3001 RMK A01 T02350183  RH  073%=      5-min Rain = 0
KME1 030807Z 20005KT 24/18 A3001 RMK A01 T02350183  RH  073%=      5-min Rain = 0
KME1 030808Z 21006KT 24/18 A3001 RMK A01 T02350183  RH  073%=      5-min Rain = 0
KME1 030809Z 21006KT 24/18 A3001 RMK A01 T02350182  RH  072%=      5-min Rain = 0
KME1 030810Z 21005KT 24/18 A3001 RMK A01 T02370183  RH  072%=      5-min Rain = 0
KME1 030811Z 20005KT 24/18 A3001 RMK A01 T02370184  RH  072%=      5-min Rain = 0
KME1 030812Z 21005KT 24/18 A3001 RMK A01 T02370184  RH  072%=      5-min Rain = 0
KME1 030813Z 20005KT 24/18 A30 RMK A01 T02370183  RH  072%=      5-min Rain = 0
KME1 030814Z 21006KT 24/18 A30 RMK A01 T02370183  RH  072%=      5-min Rain = 0
KME1 030815Z 21005KT 24/18 A30 RMK A01 T02370183  RH  072%=      5-min Rain = 0
KME1 030816Z 21005KT 24/18 A30 RMK A01 T02360184  RH  073%=      5-min Rain = 0
KME1 030817Z 21005KT 24/18 A30 RMK A01 T02350184  RH  073%=      5-min Rain = 0
KME1 030818Z 21006KT 23/18 A30 RMK A01 T02340184  RH  073%=      5-min Rain = 0
KME1 030819Z 20005KT 23/18 A30 RMK A01 T02340184  RH  074%=      5-min Rain = 0
KME1 030820Z 20005KT 23/18 A30 RMK A01 T02340184  RH  074%=      5-min Rain = 0
KME1 030821Z 20004KT 23/18 A30 RMK A01 T02340184  RH  074%=      5-min Rain = 0
KME1 030822Z 20005KT 23/18 A30 RMK A01 T02340184  RH  074%=      5-min Rain = 0
KME1 030823Z 20004KT 23/18 A30 RMK A01 T02340184  RH  074%=      5-min Rain = 0
KME1 030824Z 20004KT 23/18 A30 RMK A01 T02340184  RH  074%=      5-min Rain = 0
KME1 030825Z 19004KT 23/18 A30 RMK A01 T02340184  RH  074%=      5-min Rain = 0
KME1 030826Z 20004KT 23/19 A30 RMK A01 T02340185  RH  074%=      5-min Rain = 0
KME1 030827Z 20004KT 23/19 A30 RMK A01 T02340185  RH  074%=      5-min Rain = 0
KME1 030828Z 20004KT 23/19 A30 RMK A01 T02340185  RH  074%=      5-min Rain = 0
KME1 030829Z 20004KT 23/19 A30 RMK A01 T02330185  RH  074%=      5-min Rain = 0
KME1 030830Z 21005KT 23/19 A30 RMK A01 T02330185  RH  074%=      5-min Rain = 0
KME1 030831Z 20004KT 23/19 A30 RMK A01 T02330185  RH  075%=      5-min Rain = 0
KME1 030832Z 20004KT 23/19 A30 RMK A01 T02330186  RH  075%=      5-min Rain = 0
KME1 030833Z 20004KT 23/19 A30 RMK A01 T02320185  RH  075%=      5-min Rain = 0
KME1 030834Z 20005KT 23/19 A30 RMK A01 T02320185  RH  075%=      5-min Rain = 0
KME1 030835Z 20005KT 23/19 A30 RMK A01 T02330185  RH  075%=      5-min Rain = 0
KME1 030836Z 20004KT 23/19 A30 RMK A01 T02330185  RH  075%=      5-min Rain = 0
KME1 030837Z 20004KT 23/19 A30 RMK A01 T02330185  RH  075%=      5-min Rain = 0
KME1 030838Z 19004KT 23/19 A30 RMK A01 T02330186  RH  075%=      5-min Rain = 0
KME1 030839Z 19003KT 23/19 A30 RMK A01 T02330186  RH  075%=      5-min Rain = 0
KME1 030840Z 19004KT 23/19 A30 RMK A01 T02330186  RH  075%=      5-min Rain = 0
KME1 030841Z 19003KT 23/19 A3001 RMK A01 T02330186  RH  075%=      5-min Rain = 0
KME1 030842Z 19004KT 23/19 A3001 RMK A01 T02330186  RH  075%=      5-min Rain = 0
KME1 030843Z 18004KT 23/19 A3001 RMK A01 T02330186  RH  075%=      5-min Rain = 0
KME1 030844Z 17004KT 23/19 A3001 RMK A01 T02340186  RH  074%=      5-min Rain = 0
KME1 030845Z 17004KT 23/19 A3001 RMK A01 T02340186  RH  074%=      5-min Rain = 0
KME1 030846Z 17004KT 24/19 A3001 RMK A01 T02350187  RH  074%=      5-min Rain = 0
KME1 030847Z 17004KT 24/19 A3001 RMK A01 T02350187  RH  074%=      5-min Rain = 0
KME1 030848Z 17005KT 24/19 A3001 RMK A01 T02360187  RH  074%=      5-min Rain = 0
KME1 030849Z 18006KT 24/19 A3001 RMK A01 T02370187  RH  073%=      5-min Rain = 0
KME1 030850Z 18005KT 24/19 A3001 RMK A01 T02390188  RH  073%=      5-min Rain = 0
KME1 030851Z 18008KT 24/19 A3001 RMK A01 T02390188  RH  073%=      5-min Rain = 0
KME1 030852Z 18007KT 24/19 A3001 RMK A01 T02400188  RH  073%=      5-min Rain = 0
KME1 030853Z 17008KT 24/19 A30 RMK A01 T02410188  RH  072%=      5-min Rain = 0
KME1 030854Z 17007KT 24/19 A30 RMK A01 T02420189  RH  072%=      5-min Rain = 0
KME1 030855Z 18006KT 24/19 A30 RMK A01 T02420189  RH  072%=      5-min Rain = 0
KME1 030856Z 17008KT 24/19 A30 RMK A01 T02420189  RH  072%=      5-min Rain = 0
KME1 030857Z 18008KT 24/19 A30 RMK A01 T02420189  RH  072%=      5-min Rain = 0
KME1 030858Z 18006KT 24/19 A30 RMK A01 T02430189  RH  072%=      5-min Rain = 0
KME1 030859Z 18008KT 24/19 A30 RMK A01 T02430189  RH  072%=      5-min Rain = 0
KME1 030900Z 18008KT 24/19 A30 RMK A01 T02420190  RH  072%=      5-min Rain = 0
KME1 030901Z 18008KT 24/19 A30 RMK A01 T02420190  RH  073%=      5-min Rain = 0
KME1 030902Z 18008KT 24/19 A30 RMK A01 T02420190  RH  073%=      5-min Rain = 0
KME1 030903Z 18008KT 24/19 A30 RMK A01 T02420190  RH  073%=      5-min Rain = 0
KME1 030904Z 18008KT 24/19 A30 RMK A01 T02410191  RH  073%=      5-min Rain = 0
KME1 030905Z 18007KT 24/19 A30 RMK A01 T02410191  RH  073%=      5-min Rain = 0
KME1 030906Z 18008KT 24/19 A30 RMK A01 T02410191  RH  073%=      5-min Rain = 0
KME1 030907Z 18008KT 24/19 A30 RMK A01 T02410190  RH  073%=      5-min Rain = 0
KME1 030908Z 18008KT 24/19 A30 RMK A01 T02410190  RH  073%=      5-min Rain = 0
KME1 030909Z 18008KT 24/19 A30 RMK A01 T02410191  RH  073%=      5-min Rain = 0
KME1 030910Z 18009KT 24/19 A30 RMK A01 T02410191  RH  074%=      5-min Rain = 0
KME1 030911Z 19007KT 24/19 A30 RMK A01 T02410192  RH  074%=      5-min Rain = 0
KME1 030912Z 18006G11KT 24/19 A3001 RMK A01 T02410192  RH  074%=      5-min Rain = 0
KME1 030913Z 18007KT 24/19 A3001 RMK A01 T02400192  RH  074%=      5-min Rain = 0
KME1 030914Z 17007KT 24/19 A3001 RMK A01 T02400192  RH  075%=      5-min Rain = 0
KME1 030915Z 18009KT 24/19 A3001 RMK A01 T02400192  RH  075%=      5-min Rain = 0
KME1 030916Z 18007KT 24/19 A3001 RMK A01 T02400192  RH  075%=      5-min Rain = 0
KME1 030917Z 18007KT 24/19 A3001 RMK A01 T02400193  RH  075%=      5-min Rain = 0
KME1 030918Z 18009KT 24/19 A3001 RMK A01 T02400193  RH  075%=      5-min Rain = 0
KME1 030919Z 18007KT 24/19 A3001 RMK A01 T02400192  RH  074%=      5-min Rain = 0
KME1 030920Z 19007KT 24/19 A3001 RMK A01 T02410193  RH  074%=      5-min Rain = 0
KME1 030921Z 18010KT 24/19 A3001 RMK A01 T02410193  RH  075%=      5-min Rain = 0
KME1 030922Z 18008KT 24/19 A3001 RMK A01 T02410193  RH  075%=      5-min Rain = 0
KME1 030923Z 18009KT 24/19 A3001 RMK A01 T02410194  RH  075%=      5-min Rain = 0
KME1 030924Z 18008KT 24/19 A3001 RMK A01 T02410194  RH  075%=      5-min Rain = 0
KME1 030925Z 18009KT 24/19 A3001 RMK A01 T02410194  RH  075%=      5-min Rain = 0
KME1 030926Z 18009KT 24/19 A3001 RMK A01 T02420194  RH  075%=      5-min Rain = 0
KME1 030927Z 18009KT 24/19 A3001 RMK A01 T02420194  RH  075%=      5-min Rain = 0
KME1 030928Z 18008KT 24/20 A3001 RMK A01 T02420195  RH  075%=      5-min Rain = 0
KME1 030929Z 18008KT 24/20 A3001 RMK A01 T02420195  RH  075%=      5-min Rain = 0
KME1 030930Z 17008KT 24/20 A3001 RMK A01 T02420195  RH  075%=      5-min Rain = 0
KME1 030931Z 18008KT 24/20 A3001 RMK A01 T02410195  RH  075%=      5-min Rain = 0
KME1 030932Z 17009KT 24/20 A3001 RMK A01 T02410195  RH  075%=      5-min Rain = 0
KME1 030933Z 17008KT 24/20 A3001 RMK A01 T02410195  RH  076%=      5-min Rain = 0
KME1 030934Z 18007KT 24/20 A3001 RMK A01 T02410196  RH  076%=      5-min Rain = 0
KME1 030935Z 17006KT 24/20 A3001 RMK A01 T02410196  RH  076%=      5-min Rain = 0
KME1 030936Z 17007KT 24/20 A3001 RMK A01 T02400196  RH  076%=      5-min Rain = 0
KME1 030937Z 17008KT 24/20 A3001 RMK A01 T02400196  RH  076%=      5-min Rain = 0
KME1 030938Z 18007KT 24/20 A3001 RMK A01 T02400196  RH  076%=      5-min Rain = 0
KME1 030939Z 18008KT 24/20 A3001 RMK A01 T02400196  RH  077%=      5-min Rain = 0
KME1 030940Z 18007KT 24/20 A3001 RMK A01 T02400196  RH  077%=      5-min Rain = 0
KME1 030941Z 18008KT 24/20 A3001 RMK A01 T02400196  RH  077%=      5-min Rain = 0
KME1 030942Z 18005KT 24/20 A3002 RMK A01 T02400197  RH  077%=      5-min Rain = 0
KME1 030943Z 18004KT 24/20 A3002 RMK A01 T02400197  RH  077%=      5-min Rain = 0
KME1 030944Z 17005KT 24/20 A3002 RMK A01 T02390197  RH  077%=      5-min Rain = 0
KME1 030945Z 17009KT 24/20 A3002 RMK A01 T02390197  RH  078%=      5-min Rain = 0
KME1 030946Z 18006KT 24/20 A3002 RMK A01 T02390198  RH  078%=      5-min Rain = 0
KME1 030947Z 19007KT 24/20 A3002 RMK A01 T02390198  RH  078%=      5-min Rain = 0
KME1 030948Z 18006KT 24/20 A3002 RMK A01 T02400198  RH  078%=      5-min Rain = 0
KME1 030949Z 18006KT 24/20 A3002 RMK A01 T02400198  RH  078%=      5-min Rain = 0
KME1 030950Z 18006KT 24/20 A3002 RMK A01 T02400199  RH  078%=      5-min Rain = 0
KME1 030951Z 19008KT 24/20 A3002 RMK A01 T02400199  RH  078%=      5-min Rain = 0
KME1 030952Z 19006KT 24/20 A3002 RMK A01 T02400200  RH  078%=      5-min Rain = 0
KME1 030953Z 19007KT 24/20 A3002 RMK A01 T02400199  RH  078%=      5-min Rain = 0
KME1 030954Z 18007KT 24/20 A3002 RMK A01 T02400200  RH  078%=      5-min Rain = 0
KME1 030955Z 19007KT 24/20 A3002 RMK A01 T02400200  RH  079%=      5-min Rain = 0
KME1 030956Z 19006KT 24/20 A3002 RMK A01 T02400200  RH  079%=      5-min Rain = 0
KME1 030957Z 19005KT 24/20 A3002 RMK A01 T02390200  RH  079%=      5-min Rain = 0
KME1 030958Z 19006KT 24/20 A3002 RMK A01 T02390200  RH  079%=      5-min Rain = 0
KME1 030959Z 19005KT 24/20 A3002 RMK A01 T02390201  RH  079%=      5-min Rain = 0
KME1 031000Z 20005KT 24/20 A3002 RMK A01 T02380200  RH  079%=      5-min Rain = 0
KME1 031001Z 19006KT 24/20 A3002 RMK A01 T02380200  RH  079%=      5-min Rain = 0
KME1 031002Z 19006KT 24/20 A3002 RMK A01 T02380201  RH  080%=      5-min Rain = 0
KME1 031003Z 19005KT 24/20 A3002 RMK A01 T02380201  RH  080%=      5-min Rain = 0
KME1 031004Z 19006KT 24/20 A3002 RMK A01 T02380201  RH  080%=      5-min Rain = 0
KME1 031005Z 19005KT 24/20 A3002 RMK A01 T02380201  RH  080%=      5-min Rain = 0
KME1 031006Z 19006KT 24/20 A3002 RMK A01 T02370201  RH  080%=      5-min Rain = 0
KME1 031007Z 19007KT 24/20 A3002 RMK A01 T02370201  RH  080%=      5-min Rain = 0
KME1 031008Z 20006KT 24/20 A3002 RMK A01 T02370201  RH  080%=      5-min Rain = 0
KME1 031009Z 19005KT 24/20 A3002 RMK A01 T02370201  RH  080%=      5-min Rain = 0
KME1 031010Z 19008KT 24/20 A3002 RMK A01 T02370201  RH  080%=      5-min Rain = 0
KME1 031011Z 20007KT 24/20 A3002 RMK A01 T02370202  RH  081%=      5-min Rain = 0
KME1 031012Z 19007KT 24/20 A3002 RMK A01 T02370202  RH  081%=      5-min Rain = 0
KME1 031013Z 19007KT 24/20 A3002 RMK A01 T02360202  RH  081%=      5-min Rain = 0
KME1 031014Z 19007KT 24/20 A3002 RMK A01 T02360202  RH  081%=      5-min Rain = 0
KME1 031015Z 19007KT 24/20 A3002 RMK A01 T02360202  RH  081%=      5-min Rain = 0
KME1 031016Z 19008KT 24/20 A3002 RMK A01 T02360202  RH  081%=      5-min Rain = 0
KME1 031017Z 19008KT 24/20 A3002 RMK A01 T02370202  RH  081%=      5-min Rain = 0
KME1 031018Z 19007KT 24/20 A3002 RMK A01 T02370202  RH  081%=      5-min Rain = 0
KME1 031019Z 18009KT 24/20 A3002 RMK A01 T02370202  RH  081%=      5-min Rain = 0
KME1 031020Z 18008KT 24/20 A3002 RMK A01 T02370202  RH  081%=      5-min Rain = 0
KME1 031021Z 19008KT 24/20 A3002 RMK A01 T02370202  RH  081%=      5-min Rain = 0
KME1 031022Z 18007KT 24/20 A3002 RMK A01 T02370202  RH  081%=      5-min Rain = 0
KME1 031023Z 18007KT 24/20 A3002 RMK A01 T02370203  RH  081%=      5-min Rain = 0
KME1 031024Z 18006KT 24/20 A3003 RMK A01 T02370203  RH  081%=      5-min Rain = 0
KME1 031025Z 18006KT 24/20 A3003 RMK A01 T02360203  RH  082%=      5-min Rain = 0
KME1 031026Z 18008KT 24/20 A3003 RMK A01 T02350203  RH  082%=      5-min Rain = 0
KME1 031027Z 18008KT 24/20 A3003 RMK A01 T02350203  RH  082%=      5-min Rain = 0
KME1 031028Z 19006KT 24/20 A3003 RMK A01 T02350203  RH  082%=      5-min Rain = 0
KME1 031029Z 18006KT 24/20 A3003 RMK A01 T02350203  RH  082%=      5-min Rain = 0
KME1 031030Z 18006KT 24/20 A3003 RMK A01 T02350203  RH  082%=      5-min Rain = 0
KME1 031031Z 18006KT 24/20 A3003 RMK A01 T02350203  RH  082%=      5-min Rain = 0
KME1 031032Z 18007KT 24/20 A3003 RMK A01 T02350203  RH  083%=      5-min Rain = 0
KME1 031033Z 18007KT 23/20 A3002 RMK A01 T02340204  RH  083%=      5-min Rain = 0
KME1 031034Z 18006KT 23/20 A3002 RMK A01 T02340203  RH  083%=      5-min Rain = 0
KME1 031035Z 18006KT 23/20 A3002 RMK A01 T02340204  RH  083%=      5-min Rain = 0
KME1 031036Z 18006KT 23/20 A3002 RMK A01 T02330204  RH  083%=      5-min Rain = 0
KME1 031037Z 18007KT 23/20 A3002 RMK A01 T02340204  RH  083%=      5-min Rain = 0
KME1 031038Z 19006KT 23/20 A3003 RMK A01 T02330204  RH  083%=      5-min Rain = 0
KME1 031039Z 18006KT 23/20 A3003 RMK A01 T02340204  RH  083%=      5-min Rain = 0
KME1 031040Z 18006KT 23/20 A3003 RMK A01 T02340204  RH  083%=      5-min Rain = 0
KME1 031041Z 18005KT 23/20 A3003 RMK A01 T02330204  RH  084%=      5-min Rain = 0
KME1 031042Z 18007KT 23/21 A3003 RMK A01 T02330205  RH  084%=      5-min Rain = 0
KME1 031043Z 18007KT 23/21 A3003 RMK A01 T02330205  RH  084%=      5-min Rain = 0
KME1 031044Z 18006KT 23/21 A3003 RMK A01 T02330205  RH  084%=      5-min Rain = 0
KME1 031045Z 18005KT 23/21 A3003 RMK A01 T02320205  RH  085%=      5-min Rain = 0
KME1 031046Z 18007KT 23/21 A3003 RMK A01 T02320205  RH  085%=      5-min Rain = 0
KME1 031047Z 18007KT 23/21 A3003 RMK A01 T02320205  RH  085%=      5-min Rain = 0
KME1 031048Z 18004KT 23/21 A3003 RMK A01 T02320205  RH  085%=      5-min Rain = 0
KME1 031049Z 18007KT 23/21 A3003 RMK A01 T02320205  RH  085%=      5-min Rain = 0
KME1 031050Z 18006KT 23/21 A3003 RMK A01 T02320205  RH  085%=      5-min Rain = 0
KME1 031051Z 19005KT 23/21 A3003 RMK A01 T02320205  RH  085%=      5-min Rain = 0
KME1 031052Z 19007KT 23/21 A3003 RMK A01 T02320206  RH  085%=      5-min Rain = 0
KME1 031053Z 18005KT 23/21 A3003 RMK A01 T02310206  RH  085%=      5-min Rain = 0
KME1 031054Z 18005KT 23/21 A3003 RMK A01 T02310206  RH  085%=      5-min Rain = 0
KME1 031055Z 18005KT 23/21 A3003 RMK A01 T02310206  RH  086%=      5-min Rain = 0
KME1 031056Z 18005KT 23/21 A3003 RMK A01 T02310206  RH  086%=      5-min Rain = 0
KME1 031057Z 18005KT 23/21 A3003 RMK A01 T02310206  RH  086%=      5-min Rain = 0
KME1 031058Z 18006KT 23/21 A3003 RMK A01 T02310207  RH  087%=      5-min Rain = 0
KME1 031059Z 19005KT 23/21 A3003 RMK A01 T02300207  RH  087%=      5-min Rain = 0
KME1 031100Z 19005KT 23/21 A3003 RMK A01 T02300208  RH  087%=      5-min Rain = 0
KME1 031101Z 18006KT 23/21 A3003 RMK A01 T02300208  RH  087%=      5-min Rain = 0
KME1 031102Z 19005KT 23/21 A3003 RMK A01 T02300209  RH  088%=      5-min Rain = 0
KME1 031103Z 18006KT 23/21 A3003 RMK A01 T02300209  RH  088%=      5-min Rain = 0
KME1 031104Z 19004KT 23/21 A3003 RMK A01 T02300209  RH  088%=      5-min Rain = 0
KME1 031105Z 18005KT 23/21 A3003 RMK A01 T02290208  RH  088%=      5-min Rain = 0
KME1 031106Z 18005KT 23/21 A3003 RMK A01 T02300208  RH  088%=      5-min Rain = 0
KME1 031107Z 18006KT 23/21 A3003 RMK A01 T02300209  RH  088%=      5-min Rain = 0
KME1 031108Z 19005KT 23/21 A3003 RMK A01 T02290210  RH  089%=      5-min Rain = 0
KME1 031109Z 19006KT 23/21 A3003 RMK A01 T02290211  RH  089%=      5-min Rain = 0
KME1 031110Z 19005KT 23/21 A3003 RMK A01 T02290211  RH  090%=      5-min Rain = 0
KME1 031111Z 19005KT 23/21 A3003 RMK A01 T02290211  RH  090%=      5-min Rain = 0
KME1 031112Z 19005KT 23/21 A3003 RMK A01 T02290211  RH  090%=      5-min Rain = 0
KME1 031113Z 19004KT 23/21 A3003 RMK A01 T02290212  RH  090%=      5-min Rain = 0
KME1 031114Z 19006KT 23/21 A3003 RMK A01 T02280213  RH  091%=      5-min Rain = 0
KME1 031115Z 18006KT 23/21 A3003 RMK A01 T02280214  RH  091%=      5-min Rain = 0
KME1 031116Z 19005KT 23/21 A3003 RMK A01 T02280214  RH  091%=      5-min Rain = 0
KME1 031117Z 19006KT 23/21 A3003 RMK A01 T02280214  RH  092%=      5-min Rain = 0
KME1 031118Z 19006KT 23/21 A3003 RMK A01 T02290214  RH  092%=      5-min Rain = 0
KME1 031119Z 19007KT 23/21 A3004 RMK A01 T02280214  RH  092%=      5-min Rain = 0
KME1 031120Z 19006KT 23/21 A3004 RMK A01 T02280214  RH  092%=      5-min Rain = 0
KME1 031121Z 19005KT 23/22 A3004 RMK A01 T02280215  RH  092%=      5-min Rain = 0
KME1 031122Z 19006KT 23/22 A3004 RMK A01 T02280216  RH  093%=      5-min Rain = 0
KME1 031123Z 19005KT 23/22 A3004 RMK A01 T02280217  RH  093%=      5-min Rain = 0
KME1 031124Z 19006KT 23/22 A3004 RMK A01 T02280217  RH  093%=      5-min Rain = 0
KME1 031125Z 18005KT 23/22 A3004 RMK A01 T02280217  RH  094%=      5-min Rain = 0
KME1 031126Z 18005KT 23/22 A3004 RMK A01 T02280217  RH  094%=      5-min Rain = 0
KME1 031127Z 18005KT 23/22 A3004 RMK A01 T02280218  RH  094%=      5-min Rain = 0
KME1 031128Z 18005KT 23/22 A3004 RMK A01 T02280218  RH  095%=      5-min Rain = 0
KME1 031129Z 18005KT 23/22 A3004 RMK A01 T02270219  RH  095%=      5-min Rain = 0
KME1 031130Z 18006KT 23/22 A3004 RMK A01 T02270219  RH  095%=      5-min Rain = 0
KME1 031131Z 17007KT 23/22 A3004 RMK A01 T02270219  RH  095%=      5-min Rain = 0
KME1 031132Z 18005KT 23/22 A3004 RMK A01 T02270219  RH  095%=      5-min Rain = 0
KME1 031133Z 17005KT 23/22 A3004 RMK A01 T02270219  RH  095%=      5-min Rain = 0
KME1 031134Z 17006KT 23/22 A3004 RMK A01 T02270219  RH  095%=      5-min Rain = 0
KME1 031135Z 18005KT 23/22 A3004 RMK A01 T02270220  RH  096%=      5-min Rain = 0
KME1 031136Z 18005KT 23/22 A3004 RMK A01 T02270220  RH  096%=      5-min Rain = 0
KME1 031137Z 18005KT 23/22 A3004 RMK A01 T02260220  RH  096%=      5-min Rain = 0
KME1 031138Z 18005KT 23/22 A3004 RMK A01 T02260221  RH  097%=      5-min Rain = 0
KME1 031139Z 18005KT 23/22 A3004 RMK A01 T02260221  RH  097%=      5-min Rain = 0
KME1 031140Z 18005KT 23/22 A3004 RMK A01 T02260221  RH  097%=      5-min Rain = 0
KME1 031141Z 18005KT 23/22 A3004 RMK A01 T02260222  RH  098%=      5-min Rain = 0
KME1 031142Z 17005KT 23/22 A3004 RMK A01 T02260222  RH  098%=      5-min Rain = 0
KME1 031143Z 17005KT 23/22 A3004 RMK A01 T02250221  RH  098%=      5-min Rain = 0
KME1 031144Z 18004KT 23/22 A3004 RMK A01 T02250222  RH  098%=      5-min Rain = 0
KME1 031145Z 17004KT 23/22 A3004 RMK A01 T02250222  RH  098%=      5-min Rain = 0
KME1 031146Z 18004KT 23/22 A3004 RMK A01 T02250222  RH  098%=      5-min Rain = 0
KME1 031147Z 18005KT 23/22 A3004 RMK A01 T02250222  RH  099%=      5-min Rain = 0
KME1 031148Z 18005KT 23/22 A3004 RMK A01 T02250223  RH  099%=      5-min Rain = 0
KME1 031149Z 18005KT 23/22 A3004 RMK A01 T02250224  RH  100%=      5-min Rain = 0
KME1 031150Z 18004KT 22/22 A3004 RMK A01 T02240224  RH  099%=      5-min Rain = 0
KME1 031151Z 18005KT 22/22 A3004 RMK A01 T02240224  RH  100%=      5-min Rain = 0
KME1 031152Z 18004KT 23/22 A3004 RMK A01 T02250224  RH  100%=      5-min Rain = 0
KME1 031153Z 19004KT 23/22 A3004 RMK A01 T02250224  RH  099%=      5-min Rain = 0
KME1 031154Z 19005KT 23/22 A3005 RMK A01 T02250224  RH  100%=      5-min Rain = 0
KME1 031155Z 18005KT 22/23 A3005 RMK A01 T02240225  RH  100%=      5-min Rain = 0
KME1 031156Z 19005KT 23/23 A3005 RMK A01 T02250225  RH  100%=      5-min Rain = 0
KME1 031157Z 19005KT 23/23 A3005 RMK A01 T02250225  RH  100%=      5-min Rain = 0
KME1 031158Z 20004KT 23/23 A3005 RMK A01 T02250225  RH  100%=      5-min Rain = 0
KME1 031159Z 19004KT 23/23 A3005 RMK A01 T02250225  RH  100%=      5-min Rain = 0
KME1 031200Z 19005KT 22/22 A3005 RMK A01 T02240224  RH  100%=      5-min Rain = 0
KME1 031201Z 19005KT 23/23 A3005 RMK A01 T02250225  RH  100%=      5-min Rain = 0
KME1 031202Z 19006KT 23/23 A3005 RMK A01 T02250225  RH  100%=      5-min Rain = 0
KME1 031203Z 19005KT 23/23 A3005 RMK A01 T02250225  RH  100%=      5-min Rain = 0
KME1 031204Z 19005KT 23/23 A3005 RMK A01 T02250225  RH  100%=      5-min Rain = 0
KME1 031205Z 20005KT 23/23 A3004 RMK A01 T02250225  RH  100%=      5-min Rain = 0
KME1 031206Z 20006KT 23/23 A3004 RMK A01 T02250225  RH  100%=      5-min Rain = 0
KME1 031207Z 20006KT 23/23 A3004 RMK A01 T02250225  RH  100%=      5-min Rain = 0
KME1 031208Z 20006KT 23/23 A3004 RMK A01 T02260226  RH  100%=      5-min Rain = 0
KME1 031209Z 20006KT 23/23 A3004 RMK A01 T02260226  RH  100%=      5-min Rain = 0
KME1 031210Z 20006KT 23/23 A3004 RMK A01 T02260226  RH  100%=      5-min Rain = 0
KME1 031211Z 20005KT 23/23 A3004 RMK A01 T02260226  RH  100%=      5-min Rain = 0
KME1 031212Z 20006KT 23/23 A3004 RMK A01 T02250225  RH  100%=      5-min Rain = 0
KME1 031213Z 20007KT 23/23 A3004 RMK A01 T02260226  RH  100%=      5-min Rain = 0
KME1 031214Z 20006KT 23/23 A3004 RMK A01 T02260226  RH  100%=      5-min Rain = 0
KME1 031215Z 19006KT 23/23 A3004 RMK A01 T02260226  RH  100%=      5-min Rain = 0
KME1 031216Z 19006KT 23/23 A3004 RMK A01 T02270227  RH  100%=      5-min Rain = 0
KME1 031217Z 19005KT 23/23 A3005 RMK A01 T02270227  RH  100%=      5-min Rain = 0
KME1 031218Z 19005KT 23/23 A3005 RMK A01 T02270227  RH  100%=      5-min Rain = 0
KME1 031219Z 19006KT 23/23 A3005 RMK A01 T02270228  RH  100%=      5-min Rain = 0
KME1 031220Z 19006KT 23/23 A3005 RMK A01 T02280228  RH  100%=      5-min Rain = 0
KME1 031221Z 19006KT 23/23 A3005 RMK A01 T02280228  RH  100%=      5-min Rain = 0
KME1 031222Z 19007KT 23/23 A3005 RMK A01 T02280229  RH  100%=      5-min Rain = 0
KME1 031223Z 19007KT 23/23 A3005 RMK A01 T02290229  RH  100%=      5-min Rain = 0
KME1 031224Z 19006KT 23/23 A3005 RMK A01 T02290229  RH  100%=      5-min Rain = 0
KME1 031225Z 19006KT 23/23 A3005 RMK A01 T02290229  RH  100%=      5-min Rain = 0
KME1 031226Z 19006KT 23/23 A3005 RMK A01 T02300229  RH  100%=      5-min Rain = 0
KME1 031227Z 19005KT 23/23 A3005 RMK A01 T02300229  RH  100%=      5-min Rain = 0
KME1 031228Z 19007KT 23/23 A3005 RMK A01 T02300230  RH  099%=      5-min Rain = 0
KME1 031229Z 18006KT 23/23 A3005 RMK A01 T02300229  RH  099%=      5-min Rain = 0
KME1 031230Z 18006KT 23/23 A3005 RMK A01 T02310230  RH  099%=      5-min Rain = 0
KME1 031231Z 18006KT 23/23 A3005 RMK A01 T02310229  RH  099%=      5-min Rain = 0
KME1 031232Z 18005KT 23/23 A3005 RMK A01 T02310229  RH  099%=      5-min Rain = 0
KME1 031233Z 18005KT 23/23 A3005 RMK A01 T02310229  RH  099%=      5-min Rain = 0
KME1 031234Z 18005KT 23/23 A3005 RMK A01 T02320229  RH  098%=      5-min Rain = 0
KME1 031235Z 18005KT 23/23 A3005 RMK A01 T02320229  RH  098%=      5-min Rain = 0
KME1 031236Z 18005KT 23/23 A3005 RMK A01 T02320230  RH  098%=      5-min Rain = 0
KME1 031237Z 18006KT 23/23 A3006 RMK A01 T02330229  RH  098%=      5-min Rain = 0
KME1 031238Z 18006KT 23/23 A3006 RMK A01 T02330229  RH  097%=      5-min Rain = 0
KME1 031239Z 17006KT 23/23 A3006 RMK A01 T02330228  RH  097%=      5-min Rain = 0
KME1 031240Z 17007KT 23/23 A3006 RMK A01 T02330229  RH  097%=      5-min Rain = 0
KME1 031241Z 17007KT 23/23 A3006 RMK A01 T02330228  RH  097%=      5-min Rain = 0
KME1 031242Z 17007KT 23/23 A3006 RMK A01 T02340228  RH  097%=      5-min Rain = 0
KME1 031243Z 18006KT 23/23 A3006 RMK A01 T02340228  RH  096%=      5-min Rain = 0
KME1 031244Z 17006KT 23/23 A3006 RMK A01 T02340229  RH  097%=      5-min Rain = 0
KME1 031245Z 18006KT 23/23 A3006 RMK A01 T02340229  RH  097%=      5-min Rain = 0
KME1 031246Z 18006KT 23/23 A3006 RMK A01 T02340229  RH  096%=      5-min Rain = 0
KME1 031247Z 18005KT 24/23 A3006 RMK A01 T02350229  RH  096%=      5-min Rain = 0
KME1 031248Z 19005KT 24/23 A3006 RMK A01 T02350229  RH  097%=      5-min Rain = 0
KME1 031249Z 19008KT 24/23 A3006 RMK A01 T02360231  RH  097%=      5-min Rain = 0
KME1 031250Z 18007KT 24/23 A3006 RMK A01 T02360228  RH  095%=      5-min Rain = 0
KME1 031251Z 18005KT 24/23 A3006 RMK A01 T02360229  RH  096%=      5-min Rain = 0
KME1 031252Z 18005KT 24/23 A3006 RMK A01 T02360229  RH  096%=      5-min Rain = 0
KME1 031253Z 18008KT 24/23 A3006 RMK A01 T02360229  RH  096%=      5-min Rain = 0
KME1 031254Z 18007KT 24/23 A3006 RMK A01 T02370228  RH  095%=      5-min Rain = 0
KME1 031255Z 18006KT 24/23 A3006 RMK A01 T02370229  RH  095%=      5-min Rain = 0
KME1 031256Z 18006KT 24/23 A3006 RMK A01 T02370228  RH  095%=      5-min Rain = 0
KME1 031257Z 18007KT 24/23 A3006 RMK A01 T02370229  RH  095%=      5-min Rain = 0
KME1 031258Z 18007KT 24/23 A3006 RMK A01 T02370228  RH  095%=      5-min Rain = 0
KME1 031259Z 18006KT 24/23 A3006 RMK A01 T02370228  RH  094%=      5-min Rain = 0
KME1 031300Z 19007KT 24/23 A3006 RMK A01 T02380229  RH  095%=      5-min Rain = 0
KME1 031301Z 18007KT 24/23 A3006 RMK A01 T02390228  RH  094%=      5-min Rain = 0
KME1 031302Z 19006KT 24/23 A3006 RMK A01 T02390229  RH  094%=      5-min Rain = 0
KME1 031303Z 19008KT 24/23 A3006 RMK A01 T02390229  RH  094%=      5-min Rain = 0
KME1 031304Z 19007KT 24/23 A3006 RMK A01 T02400228  RH  093%=      5-min Rain = 0
KME1 031305Z 19007KT 24/23 A3006 RMK A01 T02400228  RH  093%=      5-min Rain = 0
KME1 031306Z 18006KT 24/23 A3006 RMK A01 T02400228  RH  093%=      5-min Rain = 0
KME1 031307Z 18007KT 24/23 A3006 RMK A01 T02410229  RH  093%=      5-min Rain = 0
KME1 031308Z 19007KT 24/23 A3006 RMK A01 T02410228  RH  092%=      5-min Rain = 0
KME1 031309Z 18008KT 24/23 A3006 RMK A01 T02420229  RH  093%=      5-min Rain = 0
KME1 031310Z 18009KT 24/23 A3006 RMK A01 T02420228  RH  092%=      5-min Rain = 0
KME1 031311Z 18008KT 24/23 A3006 RMK A01 T02430227  RH  091%=      5-min Rain = 0
KME1 031312Z 18008KT 24/23 A3006 RMK A01 T02430227  RH  091%=      5-min Rain = 0
KME1 031313Z 18008KT 24/23 A3006 RMK A01 T02430226  RH  091%=      5-min Rain = 0
KME1 031314Z 18010KT 24/23 A3006 RMK A01 T02430226  RH  091%=      5-min Rain = 0
KME1 031315Z 18009KT 24/23 A3006 RMK A01 T02430226  RH  090%=      5-min Rain = 0
KME1 031316Z 18009KT 24/23 A3006 RMK A01 T02430226  RH  091%=      5-min Rain = 0
KME1 031317Z 18011KT 24/23 A3006 RMK A01 T02430226  RH  090%=      5-min Rain = 0
KME1 031318Z 18009KT 24/23 A3006 RMK A01 T02440226  RH  090%=      5-min Rain = 0
KME1 031319Z 18010KT 24/23 A3006 RMK A01 T02440226  RH  090%=      5-min Rain = 0
KME1 031320Z 19011KT 24/23 A3006 RMK A01 T02440225  RH  089%=      5-min Rain = 0
KME1 031321Z 18010KT 25/23 A3006 RMK A01 T02450225  RH  089%=      5-min Rain = 0
KME1 031322Z 18006KT 25/23 A3006 RMK A01 T02450226  RH  089%=      5-min Rain = 0
KME1 031323Z 18011KT 25/22 A3006 RMK A01 T02460224  RH  088%=      5-min Rain = 0
KME1 031324Z 18010KT 25/22 A3006 RMK A01 T02460224  RH  088%=      5-min Rain = 0
KME1 031325Z 18008KT 25/23 A3006 RMK A01 T02470226  RH  088%=      5-min Rain = 0
KME1 031326Z 18011KT 25/22 A3006 RMK A01 T02480223  RH  086%=      5-min Rain = 0
KME1 031327Z 18009KT 25/22 A3006 RMK A01 T02480223  RH  086%=      5-min Rain = 0
KME1 031328Z 18009KT 25/22 A3006 RMK A01 T02480224  RH  086%=      5-min Rain = 0
KME1 031329Z 18012KT 25/22 A3006 RMK A01 T02490221  RH  084%=      5-min Rain = 0
KME1 031330Z 18010KT 25/22 A3006 RMK A01 T02500222  RH  085%=      5-min Rain = 0
KME1 031331Z 19011KT 25/22 A3006 RMK A01 T02500221  RH  084%=      5-min Rain = 0
KME1 031332Z 19012KT 25/22 A3006 RMK A01 T02500220  RH  083%=      5-min Rain = 0
KME1 031333Z 18010KT 25/22 A3006 RMK A01 T02500221  RH  084%=      5-min Rain = 0
KME1 031334Z 19012KT 25/22 A3006 RMK A01 T02500220  RH  083%=      5-min Rain = 0
KME1 031335Z 18008KT 25/22 A3006 RMK A01 T02510220  RH  083%=      5-min Rain = 0
KME1 031336Z 18008KT 25/22 A3006 RMK A01 T02510221  RH  083%=      5-min Rain = 0
KME1 031337Z 17009KT 25/22 A3006 RMK A01 T02530219  RH  082%=      5-min Rain = 0
KME1 031338Z 17008KT 25/22 A3006 RMK A01 T02530218  RH  081%=      5-min Rain = 0
KME1 031339Z 18007KT 25/22 A3006 RMK A01 T02540220  RH  081%=      5-min Rain = 0
KME1 031340Z 19007KT 26/22 A3006 RMK A01 T02550218  RH  080%=      5-min Rain = 0
KME1 031341Z 16007G13KT 26/22 A3006 RMK A01 T02560220  RH  081%=      5-min Rain = 0
KME1 031342Z 17009KT 26/22 A3006 RMK A01 T02570217  RH  078%=      5-min Rain = 0
KME1 031343Z 17010KT 26/22 A3006 RMK A01 T02570216  RH  078%=      5-min Rain = 0
KME1 031344Z 17009KT 26/22 A3006 RMK A01 T02570215  RH  077%=      5-min Rain = 0
KME1 031345Z 18007KT 26/22 A3006 RMK A01 T02570217  RH  078%=      5-min Rain = 0
KME1 031346Z 18009KT 26/21 A3006 RMK A01 T02580214  RH  077%=      5-min Rain = 0
KME1 031347Z 18008KT 26/21 A3006 RMK A01 T02580214  RH  077%=      5-min Rain = 0
KME1 031348Z 17006KT 26/22 A3006 RMK A01 T02590215  RH  077%=      5-min Rain = 0
KME1 031349Z 17008KT 26/22 A3006 RMK A01 T02600215  RH  076%=      5-min Rain = 0
KME1 031350Z 18008KT 26/21 A3006 RMK A01 T02610214  RH  075%=      5-min Rain = 0
KME1 031351Z 18007KT 26/21 A3006 RMK A01 T02610214  RH  075%=      5-min Rain = 0
KME1 031352Z 17007KT 26/21 A3006 RMK A01 T02620213  RH  074%=      5-min Rain = 0
KME1 031353Z 17008KT 26/21 A3006 RMK A01 T02620214  RH  075%=      5-min Rain = 0
KME1 031354Z 18007KT 26/21 A3006 RMK A01 T02630212  RH  073%=      5-min Rain = 0
KME1 031355Z 17007KT 26/21 A3006 RMK A01 T02630212  RH  073%=      5-min Rain = 0
KME1 031356Z 18007KT 26/21 A3006 RMK A01 T02640213  RH  074%=      5-min Rain = 0
KME1 031357Z 18011KT 27/21 A3006 RMK A01 T02650210  RH  072%=      5-min Rain = 0
KME1 031358Z 18012KT 26/21 A3006 RMK A01 T02640208  RH  071%=      5-min Rain = 0
KME1 031359Z 18011KT 26/21 A3006 RMK A01 T02630207  RH  071%=      5-min Rain = 0
KME1 031400Z 18011KT 26/21 A3006 RMK A01 T02630207  RH  071%=      5-min Rain = 0
KME1 031401Z 18008KT 26/21 A3006 RMK A01 T02620208  RH  072%=      5-min Rain = 0
KME1 031402Z 18007KT 26/21 A3006 RMK A01 T02640210  RH  072%=      5-min Rain = 0
KME1 031403Z 18009KT 27/21 A3006 RMK A01 T02650210  RH  071%=      5-min Rain = 0
KME1 031404Z 17009KT 27/21 A3006 RMK A01 T02670210  RH  071%=      5-min Rain = 0
KME1 031405Z 17011KT 27/21 A3006 RMK A01 T02670209  RH  071%=      5-min Rain = 0
KME1 031406Z 18010KT 27/21 A3006 RMK A01 T02670209  RH  071%=      5-min Rain = 0
KME1 031407Z 18011KT 27/21 A3006 RMK A01 T02670208  RH  070%=      5-min Rain = 0
KME1 031408Z 18008KT 27/21 A3006 RMK A01 T02670209  RH  071%=      5-min Rain = 0
KME1 031409Z 17009KT 27/21 A3006 RMK A01 T02670208  RH  070%=      5-min Rain = 0
KME1 031410Z 17010KT 27/21 A3006 RMK A01 T02680209  RH  070%=      5-min Rain = 0
KME1 031411Z 18010KT 27/21 A3006 RMK A01 T02690208  RH  069%=      5-min Rain = 0
KME1 031412Z 17009KT 27/21 A3006 RMK A01 T02690207  RH  069%=      5-min Rain = 0
KME1 031413Z 17011KT 27/21 A3006 RMK A01 T02690206  RH  068%=      5-min Rain = 0
KME1 031414Z 18012KT 27/21 A3007 RMK A01 T02700206  RH  068%=      5-min Rain = 0
KME1 031415Z 18011KT 27/20 A3006 RMK A01 T02690204  RH  068%=      5-min Rain = 0
KME1 031416Z 18010KT 27/21 A3007 RMK A01 T02690206  RH  069%=      5-min Rain = 0
KME1 031417Z 17010KT 27/21 A3007 RMK A01 T02690205  RH  068%=      5-min Rain = 0
KME1 031418Z 17010KT 27/21 A3007 RMK A01 T02700205  RH  068%=      5-min Rain = 0
KME1 031419Z 18010KT 27/21 A3007 RMK A01 T02700205  RH  067%=      5-min Rain = 0
KME1 031420Z 17012KT 27/20 A3007 RMK A01 T02700204  RH  067%=      5-min Rain = 0
KME1 031421Z 18010KT 27/20 A3007 RMK A01 T02700203  RH  067%=      5-min Rain = 0
KME1 031422Z 18012KT 27/20 A3007 RMK A01 T02710204  RH  067%=      5-min Rain = 0
KME1 031423Z 18012KT 27/20 A3007 RMK A01 T02700203  RH  067%=      5-min Rain = 0
KME1 031424Z 17011KT 27/20 A3007 RMK A01 T02700203  RH  066%=      5-min Rain = 0
KME1 031425Z 18010KT 27/20 A3007 RMK A01 T02700203  RH  067%=      5-min Rain = 0
KME1 031426Z 18010KT 27/21 A3007 RMK A01 T02720205  RH  067%=      5-min Rain = 0
KME1 031427Z 19008KT 27/21 A3007 RMK A01 T02730205  RH  066%=      5-min Rain = 0
KME1 031428Z 18009KT 27/21 A3007 RMK A01 T02740205  RH  066%=      5-min Rain = 0
KME1 031429Z 18009KT 27/21 A3007 RMK A01 T02740205  RH  066%=      5-min Rain = 0
KME1 031430Z 18009KT 28/21 A3007 RMK A01 T02750205  RH  066%=      5-min Rain = 0
KME1 031431Z 18010KT 28/20 A3007 RMK A01 T02750204  RH  065%=      5-min Rain = 0
KME1 031432Z 19007KT 27/21 A3007 RMK A01 T02740205  RH  066%=      5-min Rain = 0
KME1 031433Z 19007KT 28/21 A3007 RMK A01 T02750205  RH  066%=      5-min Rain = 0
KME1 031434Z 19010KT 28/21 A3007 RMK A01 T02770206  RH  065%=      5-min Rain = 0
KME1 031435Z 18010KT 28/20 A3007 RMK A01 T02770204  RH  064%=      5-min Rain = 0
KME1 031436Z 18009KT 28/20 A3007 RMK A01 T02780204  RH  064%=      5-min Rain = 0
KME1 031437Z 19010KT 28/20 A3007 RMK A01 T02780204  RH  064%=      5-min Rain = 0
KME1 031438Z 18008KT 28/20 A3007 RMK A01 T02770203  RH  064%=      5-min Rain = 0
KME1 031439Z 17008KT 28/21 A3007 RMK A01 T02770205  RH  065%=      5-min Rain = 0
KME1 031440Z 18009KT 28/20 A3007 RMK A01 T02780204  RH  064%=      5-min Rain = 0
KME1 031441Z 19007KT 28/20 A3007 RMK A01 T02790204  RH  064%=      5-min Rain = 0
KME1 031442Z 18007KT 28/21 A3007 RMK A01 T02800205  RH  064%=      5-min Rain = 0
KME1 031443Z 18008KT 28/21 A3007 RMK A01 T02800205  RH  064%=      5-min Rain = 0
KME1 031444Z 17010KT 28/21 A3007 RMK A01 T02800205  RH  064%=      5-min Rain = 0
KME1 031445Z 17009KT 28/20 A3007 RMK A01 T02810204  RH  063%=      5-min Rain = 0
KME1 031446Z 18009KT 28/20 A3007 RMK A01 T02800203  RH  063%=      5-min Rain = 0
KME1 031447Z 18008KT 28/20 A3007 RMK A01 T02790204  RH  064%=      5-min Rain = 0
KME1 031448Z 19007KT 28/20 A3007 RMK A01 T02790204  RH  064%=      5-min Rain = 0
KME1 031449Z 17008KT 28/21 A3007 RMK A01 T02800205  RH  064%=      5-min Rain = 0
KME1 031450Z 16010KT 28/20 A3007 RMK A01 T02810204  RH  063%=      5-min Rain = 0
KME1 031451Z 17011KT 28/20 A3007 RMK A01 T02810203  RH  062%=      5-min Rain = 0
KME1 031452Z 17009KT 28/20 A3007 RMK A01 T02820204  RH  063%=      5-min Rain = 0
KME1 031453Z 17010KT 28/20 A3007 RMK A01 T02820203  RH  062%=      5-min Rain = 0
KME1 031454Z 16010KT 28/20 A3007 RMK A01 T02820203  RH  062%=      5-min Rain = 0
KME1 031455Z 17011KT 28/20 A3007 RMK A01 T02820203  RH  062%=      5-min Rain = 0
KME1 031456Z 18008KT 28/20 A3007 RMK A01 T02820203  RH  062%=      5-min Rain = 0
KME1 031457Z 17008KT 28/20 A3007 RMK A01 T02830203  RH  062%=      5-min Rain = 0
KME1 031458Z 17006KT 28/21 A3007 RMK A01 T02830205  RH  062%=      5-min Rain = 0
KME1 031459Z 17006KT 29/21 A3007 RMK A01 T02850207  RH  063%=      5-min Rain = 0
KME1 031500Z 17008KT 29/21 A3007 RMK A01 T02870205  RH  061%=      5-min Rain = 0
KME1 031501Z 17007KT 29/20 A3008 RMK A01 T02880204  RH  060%=      5-min Rain = 0
KME1 031502Z 16007KT 29/21 A3008 RMK A01 T02880206  RH  061%=      5-min Rain = 0
KME1 031503Z 16009KT 29/21 A3008 RMK A01 T02890205  RH  061%=      5-min Rain = 0
KME1 031504Z 16008KT 29/21 A3008 RMK A01 T02890205  RH  060%=      5-min Rain = 0
KME1 031505Z 17006KT 29/21 A3008 RMK A01 T02900207  RH  061%=      5-min Rain = 0
KME1 031506Z 17009KT 29/21 A3008 RMK A01 T02920206  RH  060%=      5-min Rain = 0
KME1 031507Z 17009KT 29/20 A3008 RMK A01 T02920204  RH  059%=      5-min Rain = 0
KME1 031508Z 17008KT 29/21 A3008 RMK A01 T02910205  RH  060%=      5-min Rain = 0
KME1 031509Z 18008KT 29/21 A3008 RMK A01 T02910205  RH  060%=      5-min Rain = 0
KME1 031510Z 19007KT 29/21 A3008 RMK A01 T02920205  RH  060%=      5-min Rain = 0
KME1 031511Z 19009KT 29/20 A3008 RMK A01 T02910201  RH  058%=      5-min Rain = 0
KME1 031512Z 18007KT 29/20 A3008 RMK A01 T02890202  RH  059%=      5-min Rain = 0
KME1 031513Z 19006KT 29/20 A3008 RMK A01 T02880204  RH  060%=      5-min Rain = 0
KME1 031514Z 18006KT 29/20 A3008 RMK A01 T02890203  RH  060%=      5-min Rain = 0
KME1 031515Z 16009KT 29/21 A3008 RMK A01 T02890205  RH  060%=      5-min Rain = 0
KME1 031516Z 16010KT 29/20 A3008 RMK A01 T02910202  RH  059%=      5-min Rain = 0
KME1 031517Z 16009KT 29/20 A3008 RMK A01 T02910204  RH  059%=      5-min Rain = 0
KME1 031518Z 16008KT 29/21 A3008 RMK A01 T02920205  RH  059%=      5-min Rain = 0
KME1 031519Z 15006KT 29/20 A3008 RMK A01 T02920204  RH  059%=      5-min Rain = 0
KME1 031520Z 15008KT 29/20 A3008 RMK A01 T02930204  RH  059%=      5-min Rain = 0
KME1 031521Z 17010KT 29/20 A3008 RMK A01 T02940201  RH  058%=      5-min Rain = 0
KME1 031522Z 17008KT 29/20 A3008 RMK A01 T02920200  RH  058%=      5-min Rain = 0
KME1 031523Z 16006KT 29/20 A3008 RMK A01 T02910202  RH  059%=      5-min Rain = 0
KME1 031524Z 17007KT 29/20 A3008 RMK A01 T02920201  RH  058%=      5-min Rain = 0
KME1 031525Z 16004KT 29/20 A3008 RMK A01 T02930200  RH  057%=      5-min Rain = 0
KME1 031526Z 19003KT 29/20 A3008 RMK A01 T02930203  RH  059%=      5-min Rain = 0
KME1 031527Z 20005KT 29/20 A3008 RMK A01 T02940204  RH  059%=      5-min Rain = 0
KME1 031528Z 19006KT 30/20 A3008 RMK A01 T02950202  RH  057%=      5-min Rain = 0
KME1 031529Z 20005KT 30/20 A3008 RMK A01 T02960203  RH  057%=      5-min Rain = 0
KME1 031530Z 19005KT 30/20 A3008 RMK A01 T02950203  RH  057%=      5-min Rain = 0
KME1 031531Z 16008KT 30/20 A3008 RMK A01 T02950204  RH  058%=      5-min Rain = 0
KME1 031532Z 18007KT 30/20 A3008 RMK A01 T02960204  RH  058%=      5-min Rain = 0
KME1 031533Z 18008KT 30/20 A3008 RMK A01 T02980203  RH  057%=      5-min Rain = 0
KME1 031534Z 19006KT 30/20 A3008 RMK A01 T02990203  RH  056%=      5-min Rain = 0
KME1 031535Z 17008KT 30/20 A3008 RMK A01 T03000204  RH  057%=      5-min Rain = 0
KME1 031536Z 16006KT 30/20 A3008 RMK A01 T03000203  RH  056%=      5-min Rain = 0
KME1 031537Z 17004KT 30/21 A3008 RMK A01 T02990205  RH  057%=      5-min Rain = 0
KME1 031538Z 18006KT 30/21 A3008 RMK A01 T03000206  RH  057%=      5-min Rain = 0
KME1 031539Z 16008KT 30/20 A3008 RMK A01 T03030203  RH  055%=      5-min Rain = 0
KME1 031540Z 16007KT 30/20 A3008 RMK A01 T03030200  RH  054%=      5-min Rain = 0
KME1 031541Z 16007KT 30/20 A3008 RMK A01 T03010199  RH  055%=      5-min Rain = 0
KME1 031542Z 17007KT 30/20 A3008 RMK A01 T03000202  RH  056%=      5-min Rain = 0
KME1 031543Z 15008KT 30/20 A3008 RMK A01 T03010200  RH  055%=      5-min Rain = 0
KME1 031544Z 17008KT 30/20 A3008 RMK A01 T03010200  RH  055%=      5-min Rain = 0
KME1 031545Z 18007KT 30/20 A3008 RMK A01 T03010201  RH  055%=      5-min Rain = 0
KME1 031546Z 16006KT 30/20 A3008 RMK A01 T03020201  RH  055%=      5-min Rain = 0
KME1 031547Z 15006KT 30/20 A3008 RMK A01 T03020200  RH  054%=      5-min Rain = 0
KME1 031548Z 16005KT 30/20 A3008 RMK A01 T03030201  RH  054%=      5-min Rain = 0
KME1 031549Z 18005KT 30/20 A3008 RMK A01 T03040202  RH  055%=      5-min Rain = 0
KME1 031550Z 18007KT 31/20 A3008 RMK A01 T03050202  RH  054%=      5-min Rain = 0
KME1 031551Z 18008KT 31/20 A3008 RMK A01 T03050199  RH  053%=      5-min Rain = 0
KME1 031552Z 16006KT 30/20 A3008 RMK A01 T03040201  RH  054%=      5-min Rain = 0
KME1 031553Z 16005KT 30/20 A3008 RMK A01 T03040202  RH  054%=      5-min Rain = 0
KME1 031554Z 16006KT 31/20 A3008 RMK A01 T03060201  RH  054%=      5-min Rain = 0
KME1 031555Z 17006KT 31/20 A3008 RMK A01 T03070201  RH  053%=      5-min Rain = 0
KME1 031556Z 17009KT 31/20 A3008 RMK A01 T03060200  RH  053%=      5-min Rain = 0
KME1 031557Z 17007KT 31/20 A3008 RMK A01 T03070197  RH  052%=      5-min Rain = 0
KME1 031558Z 17009KT 31/20 A3008 RMK A01 T03050198  RH  053%=      5-min Rain = 0
KME1 031559Z 17007KT 31/20 A3008 RMK A01 T03050197  RH  053%=      5-min Rain = 0
KME1 031600Z 16007KT 30/20 A3008 RMK A01 T03040196  RH  052%=      5-min Rain = 0
KME1 031601Z 16006KT 31/20 A3008 RMK A01 T03050200  RH  053%=      5-min Rain = 0
KME1 031602Z 20007KT 31/20 A3008 RMK A01 T03060198  RH  053%=      5-min Rain = 0
KME1 031603Z 20006KT 31/20 A3008 RMK A01 T03080202  RH  053%=      5-min Rain = 0
KME1 031604Z 21006KT 31/20 A3008 RMK A01 T03110201  RH  052%=      5-min Rain = 0
KME1 031605Z 20010KT 31/20 A3008 RMK A01 T03120201  RH  052%=      5-min Rain = 0
KME1 031606Z 19007KT 31/20 A3008 RMK A01 T03100202  RH  052%=      5-min Rain = 0
KME1 031607Z 19007KT 31/20 A3008 RMK A01 T03090200  RH  052%=      5-min Rain = 0
KME1 031608Z 18005KT 31/20 A3008 RMK A01 T03070198  RH  052%=      5-min Rain = 0
KME1 031609Z 19004KT 31/20 A3008 RMK A01 T03060202  RH  054%=      5-min Rain = 0
KME1 031610Z 17008KT 31/20 A3008 RMK A01 T03080200  RH  053%=      5-min Rain = 0
KME1 031611Z 16005KT 31/20 A3008 RMK A01 T03080199  RH  052%=      5-min Rain = 0
KME1 031612Z 15005KT 31/20 A3008 RMK A01 T03080199  RH  052%=      5-min Rain = 0
KME1 031613Z 14008KT 31/20 A3008 RMK A01 T03080199  RH  052%=      5-min Rain = 0
KME1 031614Z 15011KT 31/20 A3008 RMK A01 T03100198  RH  051%=      5-min Rain = 0
KME1 031615Z 18007KT 31/20 A3008 RMK A01 T03120200  RH  051%=      5-min Rain = 0
KME1 031616Z 18007KT 31/20 A3008 RMK A01 T03130201  RH  052%=      5-min Rain = 0
KME1 031617Z 18007KT 31/20 A3008 RMK A01 T03140200  RH  051%=      5-min Rain = 0
KME1 031618Z 18008KT 31/20 A3008 RMK A01 T03130202  RH  052%=      5-min Rain = 0
KME1 031619Z 18007KT 31/20 A3008 RMK A01 T03130200  RH  051%=      5-min Rain = 0
KME1 031620Z 16007KT 31/20 A3008 RMK A01 T03130198  RH  051%=      5-min Rain = 0
KME1 031621Z 16007KT 31/20 A3008 RMK A01 T03140201  RH  051%=      5-min Rain = 0
KME1 031622Z 16007KT 32/20 A3008 RMK A01 T03150199  RH  050%=      5-min Rain = 0
KME1 031623Z 17006KT 32/20 A3008 RMK A01 T03160198  RH  050%=      5-min Rain = 0
KME1 031624Z 17006KT 32/20 A3008 RMK A01 T03170199  RH  050%=      5-min Rain = 0
KME1 031625Z 20007KT 32/20 A3008 RMK A01 T03180197  RH  049%=      5-min Rain = 0
KME1 031626Z 19007KT 32/20 A3008 RMK A01 T03180197  RH  049%=      5-min Rain = 0
KME1 031627Z 20008KT 32/20 A3008 RMK A01 T03170198  RH  049%=      5-min Rain = 0
KME1 031628Z 20008KT 32/20 A3008 RMK A01 T03170198  RH  049%=      5-min Rain = 0
KME1 031629Z 19009KT 32/20 A3008 RMK A01 T03180195  RH  048%=      5-min Rain = 0
KME1 031630Z 19008KT 32/20 A3008 RMK A01 T03170196  RH  049%=      5-min Rain = 0
KME1 031631Z 19006KT 32/19 A3008 RMK A01 T03150194  RH  049%=      5-min Rain = 0
KME1 031632Z 21008KT 32/20 A3008 RMK A01 T03150198  RH  050%=      5-min Rain = 0
KME1 031633Z 18008KT 32/20 A3008 RMK A01 T03160198  RH  050%=      5-min Rain = 0
KME1 031634Z 18007KT 32/20 A3008 RMK A01 T03160199  RH  050%=      5-min Rain = 0
KME1 031635Z 18007KT 32/20 A3008 RMK A01 T03160200  RH  050%=      5-min Rain = 0
KME1 031636Z 19006KT 32/20 A3008 RMK A01 T03160201  RH  050%=      5-min Rain = 0
KME1 031637Z 18008KT 32/20 A3008 RMK A01 T03180198  RH  049%=      5-min Rain = 0
KME1 031638Z 18010KT 32/19 A3008 RMK A01 T03200191  RH  046%=      5-min Rain = 0
KME1 031639Z 18009KT 32/19 A3008 RMK A01 T03190191  RH  047%=      5-min Rain = 0
KME1 031640Z 18007KT 32/20 A3008 RMK A01 T03180195  RH  048%=      5-min Rain = 0
KME1 031641Z 19009KT 32/19 A3007 RMK A01 T03190192  RH  047%=      5-min Rain = 0
KME1 031642Z 19008KT 32/20 A3007 RMK A01 T03200197  RH  048%=      5-min Rain = 0
KME1 031643Z 19007KT 32/20 A3007 RMK A01 T03210196  RH  047%=      5-min Rain = 0
KME1 031644Z 19009KT 32/20 A3008 RMK A01 T03210195  RH  047%=      5-min Rain = 0
KME1 031645Z 20007KT 32/19 A3008 RMK A01 T03220194  RH  047%=      5-min Rain = 0
KME1 031646Z 19007KT 32/20 A3008 RMK A01 T03220198  RH  048%=      5-min Rain = 0
KME1 031647Z 19007KT 33/20 A3008 RMK A01 T03250197  RH  047%=      5-min Rain = 0
KME1 031648Z 19010KT 33/19 A3007 RMK A01 T03250194  RH  046%=      5-min Rain = 0
KME1 031649Z 19010KT 32/19 A3007 RMK A01 T03220192  RH  046%=      5-min Rain = 0
KME1 031650Z 17009KT 32/19 A3007 RMK A01 T03190192  RH  047%=      5-min Rain = 0
KME1 031651Z 18008KT 32/19 A3007 RMK A01 T03180190  RH  047%=      5-min Rain = 0
KME1 031652Z 17005KT 32/19 A3007 RMK A01 T03180192  RH  047%=      5-min Rain = 0
KME1 031653Z 17006KT 32/19 A3007 RMK A01 T03190194  RH  048%=      5-min Rain = 0
KME1 031654Z 18007KT 32/19 A3007 RMK A01 T03210194  RH  047%=      5-min Rain = 0
KME1 031655Z 18007KT 32/20 A3007 RMK A01 T03220196  RH  047%=      5-min Rain = 0
KME1 031656Z 19008KT 32/19 A3007 RMK A01 T03240194  RH  046%=      5-min Rain = 0
KME1 031657Z 19009KT 32/19 A3007 RMK A01 T03240192  RH  046%=      5-min Rain = 0
KME1 031658Z 18006KT 32/19 A3007 RMK A01 T03230192  RH  046%=      5-min Rain = 0
KME1 031659Z 18005KT 32/19 A3007 RMK A01 T03230193  RH  046%=      5-min Rain = 0
KME1 031700Z 16005KT 32/19 A3007 RMK A01 T03240194  RH  046%=      5-min Rain = 0
KME1 031701Z 17007KT 33/20 A3007 RMK A01 T03250199  RH  047%=      5-min Rain = 0
KME1 031702Z 19009KT 33/20 A3007 RMK A01 T03270195  RH  046%=      5-min Rain = 0
KME1 031703Z 19009KT 33/20 A3007 RMK A01 T03270197  RH  046%=      5-min Rain = 0
KME1 031704Z 19009KT 33/19 A3007 RMK A01 T03270194  RH  046%=      5-min Rain = 0
KME1 031705Z 18007KT 32/19 A3007 RMK A01 T03240193  RH  046%=      5-min Rain = 0
KME1 031706Z 15006KT 32/19 A3007 RMK A01 T03220193  RH  046%=      5-min Rain = 0
KME1 031707Z 18005KT 32/19 A3007 RMK A01 T03210193  RH  047%=      5-min Rain = 0
KME1 031708Z 17007KT 32/19 A3007 RMK A01 T03220193  RH  047%=      5-min Rain = 0
KME1 031709Z 18007KT 32/19 A3007 RMK A01 T03230191  RH  046%=      5-min Rain = 0
KME1 031710Z 21007KT 33/19 A3007 RMK A01 T03250189  RH  045%=      5-min Rain = 0
KME1 031711Z 21008KT 33/19 A3007 RMK A01 T03280194  RH  045%=      5-min Rain = 0
KME1 031712Z 20009KT 33/19 A3007 RMK A01 T03300189  RH  043%=      5-min Rain = 0
KME1 031713Z 19009KT 33/19 A3007 RMK A01 T03310192  RH  044%=      5-min Rain = 0
KME1 031714Z 18007KT 33/19 A3007 RMK A01 T03310189  RH  043%=      5-min Rain = 0
KME1 031715Z 20006KT 33/19 A3007 RMK A01 T03280191  RH  044%=      5-min Rain = 0
KME1 031716Z 19009KT 33/19 A3007 RMK A01 T03290192  RH  044%=      5-min Rain = 0
KME1 031717Z 19009KT 33/19 A3007 RMK A01 T03310193  RH  044%=      5-min Rain = 0
KME1 031718Z 19007KT 33/19 A3007 RMK A01 T03320192  RH  044%=      5-min Rain = 0
KME1 031719Z 18008KT 33/19 A3007 RMK A01 T03310190  RH  043%=      5-min Rain = 0
KME1 031720Z 18006KT 33/19 A3007 RMK A01 T03300188  RH  043%=      5-min Rain = 0
KME1 031721Z 20007KT 33/19 A3007 RMK A01 T03280187  RH  043%=      5-min Rain = 0
KME1 031722Z 21007KT 33/19 A3007 RMK A01 T03270190  RH  044%=      5-min Rain = 0
KME1 031723Z 20007KT 33/19 A3007 RMK A01 T03270194  RH  045%=      5-min Rain = 0
KME1 031724Z 16007KT 33/20 A3007 RMK A01 T03300196  RH  045%=      5-min Rain = 0
KME1 031725Z 16008KT 33/19 A3007 RMK A01 T03320194  RH  044%=      5-min Rain = 0
KME1 031726Z 16006KT 33/19 A3007 RMK A01 T03310191  RH  044%=      5-min Rain = 0
KME1 031727Z 17006KT 33/19 A3007 RMK A01 T03310190  RH  043%=      5-min Rain = 0
KME1 031728Z 18012KT 33/19 A3007 RMK A01 T03310187  RH  043%=      5-min Rain = 0
KME1 031729Z 18009KT 33/19 A3007 RMK A01 T03300186  RH  043%=      5-min Rain = 0
KME1 031730Z 19007KT 33/19 A3007 RMK A01 T03280187  RH  043%=      5-min Rain = 0
KME1 031731Z 19007KT 33/19 A3007 RMK A01 T03290187  RH  043%=      5-min Rain = 0
KME1 031732Z 18008KT 33/19 A3007 RMK A01 T03290190  RH  044%=      5-min Rain = 0
KME1 031733Z 18007KT 33/19 A3007 RMK A01 T03310187  RH  043%=      5-min Rain = 0
KME1 031734Z 19006KT 33/19 A3007 RMK A01 T03320190  RH  043%=      5-min Rain = 0
KME1 031735Z 21007KT 33/19 A3007 RMK A01 T03340190  RH  043%=      5-min Rain = 0
KME1 031736Z 20007KT 34/19 A3007 RMK A01 T03360189  RH  042%=      5-min Rain = 0
KME1 031737Z 18005KT 34/19 A3007 RMK A01 T03360185  RH  041%=      5-min Rain = 0
KME1 031738Z 19006KT 33/18 A3007 RMK A01 T03330184  RH  041%=      5-min Rain = 0
KME1 031739Z 18006KT 33/19 A3007 RMK A01 T03320185  RH  042%=      5-min Rain = 0
KME1 031740Z 19007KT 33/19 A3007 RMK A01 T03320187  RH  042%=      5-min Rain = 0
KME1 031741Z 17007KT 34/19 A3007 RMK A01 T03350187  RH  042%=      5-min Rain = 0
KME1 031742Z 17008KT 34/18 A3007 RMK A01 T03360184  RH  041%=      5-min Rain = 0
KME1 031743Z 17007KT 34/18 A3006 RMK A01 T03350184  RH  041%=      5-min Rain = 0
KME1 031744Z 19006KT 33/18 A3006 RMK A01 T03340183  RH  041%=      5-min Rain = 0
KME1 031745Z 21004KT 33/18 A3006 RMK A01 T03330184  RH  042%=      5-min Rain = 0
KME1 031746Z 15006KT 33/18 A3006 RMK A01 T03330184  RH  041%=      5-min Rain = 0
KME1 031747Z 13008KT 33/19 A3006 RMK A01 T03330185  RH  041%=      5-min Rain = 0
KME1 031748Z 13006KT 33/18 A3006 RMK A01 T03330179  RH  040%=      5-min Rain = 0
KME1 031749Z 11005KT 33/18 A3006 RMK A01 T03320182  RH  041%=      5-min Rain = 0
KME1 031750Z 16005KT 33/19 A3006 RMK A01 T03330186  RH  042%=      5-min Rain = 0
KME1 031751Z 15007KT 34/19 A3006 RMK A01 T03370186  RH  041%=      5-min Rain = 0
KME1 031752Z 14007KT 34/18 A3006 RMK A01 T03380176  RH  038%=      5-min Rain = 0
KME1 031753Z 10005KT 34/18 A3006 RMK A01 T03380180  RH  039%=      5-min Rain = 0
KME1 031754Z 13006KT 34/19 A3006 RMK A01 T03380185  RH  040%=      5-min Rain = 0
KME1 031755Z 17004KT 34/19 A3006 RMK A01 T03420189  RH  040%=      5-min Rain = 0
KME1 031756Z 11004KT 34/18 A3006 RMK A01 T03440184  RH  039%=      5-min Rain = 0
KME1 031757Z 11007KT 35/18 A3006 RMK A01 T03450184  RH  039%=      5-min Rain = 0
KME1 031758Z 16006KT 35/19 A3006 RMK A01 T03460185  RH  039%=      5-min Rain = 0
KME1 031759Z 12005KT 34/18 A3006 RMK A01 T03440178  RH  038%=      5-min Rain = 0
KME1 031800Z 13009KT 34/18 A3006 RMK A01 T03410180  RH  039%=      5-min Rain = 0
KME1 031801Z 15009KT 34/18 A3006 RMK A01 T03410176  RH  038%=      5-min Rain = 0
KME1 031802Z 15009KT 34/18 A3006 RMK A01 T03420177  RH  038%=      5-min Rain = 0
KME1 031803Z 17010KT 34/18 A3005 RMK A01 T03420176  RH  037%=      5-min Rain = 0
KME1 031804Z 16009KT 34/18 A3005 RMK A01 T03400176  RH  038%=      5-min Rain = 0
KME1 031805Z 17010KT 34/18 A3005 RMK A01 T03390176  RH  038%=      5-min Rain = 0
KME1 031806Z 18007KT 34/17 A3005 RMK A01 T03400171  RH  037%=      5-min Rain = 0
KME1 031807Z 16006KT 34/18 A3005 RMK A01 T03410178  RH  038%=      5-min Rain = 0
KME1 031808Z 18004KT 34/17 A3005 RMK A01 T03440172  RH  036%=      5-min Rain = 0
KME1 031809Z 15005KT 34/18 A3005 RMK A01 T03430175  RH  037%=      5-min Rain = 0
KME1 031810Z 16010KT 34/18 A3005 RMK A01 T03430180  RH  038%=      5-min Rain = 0
KME1 031811Z 17007KT 34/18 A3005 RMK A01 T03430179  RH  038%=      5-min Rain = 0
KME1 031812Z 15007KT 34/18 A3005 RMK A01 T03420180  RH  038%=      5-min Rain = 0
KME1 031813Z 14008KT 34/18 A3005 RMK A01 T03420178  RH  038%=      5-min Rain = 0
KME1 031814Z 14008KT 34/18 A3005 RMK A01 T03420175  RH  037%=      5-min Rain = 0
KME1 031815Z 12006KT 34/18 A3005 RMK A01 T03400179  RH  038%=      5-min Rain = 0
KME1 031816Z 10006KT 34/17 A3005 RMK A01 T03420170  RH  036%=      5-min Rain = 0
KME1 031817Z 12007KT 34/17 A3005 RMK A01 T03430171  RH  036%=      5-min Rain = 0
KME1 031818Z 13008KT 34/17 A3005 RMK A01 T03430172  RH  036%=      5-min Rain = 0
KME1 031819Z 11010KT 34/18 A3005 RMK A01 T03430175  RH  037%=      5-min Rain = 0
KME1 031820Z 11010KT 34/17 A3005 RMK A01 T03430173  RH  036%=      5-min Rain = 0
KME1 031821Z 10010KT 34/18 A3005 RMK A01 T03430175  RH  037%=      5-min Rain = 0
KME1 031822Z 11010KT 34/17 A3005 RMK A01 T03430174  RH  037%=      5-min Rain = 0
KME1 031823Z 10008KT 34/17 A3005 RMK A01 T03430174  RH  037%=      5-min Rain = 0
KME1 031824Z 11008KT 34/17 A3005 RMK A01 T03430170  RH  036%=      5-min Rain = 0
KME1 031825Z 11005KT 34/18 A3005 RMK A01 T03430175  RH  037%=      5-min Rain = 0
KME1 031826Z 10008KT 35/18 A3005 RMK A01 T03450177  RH  037%=      5-min Rain = 0
KME1 031827Z 09009KT 35/18 A3005 RMK A01 T03470175  RH  036%=      5-min Rain = 0
KME1 031828Z 09007KT 35/17 A3005 RMK A01 T03450170  RH  035%=      5-min Rain = 0
KME1 031829Z 10005KT 34/17 A3005 RMK A01 T03430172  RH  036%=      5-min Rain = 0
KME1 031830Z 15006KT 34/18 A3005 RMK A01 T03440176  RH  037%=      5-min Rain = 0
KME1 031831Z 17007KT 35/17 A3005 RMK A01 T03460169  RH  035%=      5-min Rain = 0
KME1 031832Z 16004KT 35/17 A3005 RMK A01 T03450166  RH  035%=      5-min Rain = 0
KME1 031833Z 16004KT 34/17 A3004 RMK A01 T03430167  RH  035%=      5-min Rain = 0
KME1 031834Z 18008KT 35/17 A3004 RMK A01 T03450170  RH  035%=      5-min Rain = 0
KME1 031835Z 17008KT 35/17 A3004 RMK A01 T03470169  RH  035%=      5-min Rain = 0
KME1 031836Z 16009KT 35/17 A3004 RMK A01 T03480166  RH  034%=      5-min Rain = 0
KME1 031837Z 15007KT 35/17 A3004 RMK A01 T03470167  RH  034%=      5-min Rain = 0
KME1 031838Z 12011KT 35/17 A3005 RMK A01 T03480165  RH  034%=      5-min Rain = 0
KME1 031839Z 15007KT 35/16 A3004 RMK A01 T03470162  RH  033%=      5-min Rain = 0
KME1 031840Z 13012KT 35/17 A3004 RMK A01 T03470167  RH  034%=      5-min Rain = 0
KME1 031841Z 15012KT 35/17 A3004 RMK A01 T03480165  RH  034%=      5-min Rain = 0
KME1 031842Z 13009KT 35/16 A3004 RMK A01 T03470164  RH  034%=      5-min Rain = 0
KME1 031843Z 13008KT 35/17 A3004 RMK A01 T03460169  RH  035%=      5-min Rain = 0
KME1 031844Z 14007KT 35/17 A3004 RMK A01 T03470167  RH  034%=      5-min Rain = 0
KME1 031845Z 11008KT 35/17 A3004 RMK A01 T03470169  RH  035%=      5-min Rain = 0
KME1 031846Z 11008KT 35/17 A3004 RMK A01 T03460170  RH  035%=      5-min Rain = 0
KME1 031847Z 10007KT 35/17 A3004 RMK A01 T03470168  RH  035%=      5-min Rain = 0
KME1 031848Z 09009KT 34/17 A3004 RMK A01 T03440167  RH  035%=      5-min Rain = 0
KME1 031849Z 11010KT 34/17 A3004 RMK A01 T03440168  RH  035%=      5-min Rain = 0
KME1 031850Z 12009KT 34/17 A3004 RMK A01 T03440166  RH  035%=      5-min Rain = 0
KME1 031851Z 12007KT 34/17 A3004 RMK A01 T03430171  RH  036%=      5-min Rain = 0
KME1 031852Z 12009KT 34/17 A3004 RMK A01 T03440167  RH  035%=      5-min Rain = 0
KME1 031853Z 13007KT 35/16 A3004 RMK A01 T03450164  RH  034%=      5-min Rain = 0
KME1 031854Z 13005KT 35/16 A3003 RMK A01 T03450163  RH  034%=      5-min Rain = 0
KME1 031855Z 12006KT 35/17 A3003 RMK A01 T03460168  RH  035%=      5-min Rain = 0
KME1 031856Z 14006KT 35/17 A3003 RMK A01 T03480169  RH  035%=      5-min Rain = 0
KME1 031857Z 12004KT 35/17 A3003 RMK A01 T03500167  RH  034%=      5-min Rain = 0
KME1 031858Z 12009KT 35/17 A3003 RMK A01 T03500170  RH  035%=      5-min Rain = 0
KME1 031859Z 11008KT 35/17 A3003 RMK A01 T03470173  RH  036%=      5-min Rain = 0
KME1 031900Z 10008KT 35/18 A3003 RMK A01 T03470175  RH  036%=      5-min Rain = 0
KME1 031901Z 13007KT 35/17 A3003 RMK A01 T03480169  RH  034%=      5-min Rain = 0
KME1 031902Z 11009KT 35/17 A3004 RMK A01 T03460169  RH  035%=      5-min Rain = 0
KME1 031903Z 14008KT 35/17 A3003 RMK A01 T03460168  RH  035%=      5-min Rain = 0
KME1 031904Z 16012KT 35/16 A3003 RMK A01 T03480159  RH  033%=      5-min Rain = 0
KME1 031905Z 16010KT 35/15 A3004 RMK A01 T03480154  RH  032%=      5-min Rain = 0
KME1 031906Z 19007KT 35/15 A3003 RMK A01 T03470154  RH  031%=      5-min Rain = 0
KME1 031907Z 19006KT 35/15 A3003 RMK A01 T03480153  RH  031%=      5-min Rain = 0
KME1 031908Z 15008KT 35/16 A3003 RMK A01 T03490160  RH  033%=      5-min Rain = 0
KME1 031909Z 13008KT 35/15 A3004 RMK A01 T03510153  RH  031%=      5-min Rain = 0
KME1 031910Z 12009KT 35/16 A3004 RMK A01 T03520155  RH  031%=      5-min Rain = 0
KME1 031911Z 13007KT 35/16 A3004 RMK A01 T03510158  RH  032%=      5-min Rain = 0
KME1 031912Z 12005KT 35/16 A3003 RMK A01 T03500157  RH  032%=      5-min Rain = 0
KME1 031913Z 12005KT 35/16 A3003 RMK A01 T03500155  RH  031%=      5-min Rain = 0
KME1 031914Z 13007KT 35/16 A3003 RMK A01 T03500157  RH  032%=      5-min Rain = 0
KME1 031915Z 12005KT 35/16 A3003 RMK A01 T03500155  RH  031%=      5-min Rain = 0
KME1 031916Z 12012KT 35/16 A3003 RMK A01 T03490157  RH  032%=      5-min Rain = 0
KME1 031917Z 11009KT 35/16 A3004 RMK A01 T03480160  RH  033%=      5-min Rain = 0
KME1 031918Z 12006KT 35/16 A3003 RMK A01 T03460159  RH  033%=      5-min Rain = 0
KME1 031919Z 11006KT 35/16 A3003 RMK A01 T03460159  RH  033%=      5-min Rain = 0
KME1 031920Z 08005KT 35/16 A3003 RMK A01 T03460161  RH  033%=      5-min Rain = 0
KME1 031921Z 05005KT 35/16 A3003 RMK A01 T03470161  RH  033%=      5-min Rain = 0
KME1 031922Z 10009KT 35/16 A3003 RMK A01 T03500159  RH  032%=      5-min Rain = 0
KME1 031923Z 11008KT 35/16 A3003 RMK A01 T03490158  RH  032%=      5-min Rain = 0
KME1 031924Z 15010G16KT 35/16 A3003 RMK A01 T03500161  RH  032%=      5-min Rain = 0
KME1 031925Z 15011KT 35/15 A3003 RMK A01 T03520153  RH  031%=      5-min Rain = 0
KME1 031926Z 15011KT 35/16 A3003 RMK A01 T03510157  RH  032%=      5-min Rain = 0
KME1 031927Z 16009KT 35/16 A3003 RMK A01 T03510157  RH  032%=      5-min Rain = 0
KME1 031928Z 17010KT 35/16 A3003 RMK A01 T03530160  RH  032%=      5-min Rain = 0
KME1 031929Z 16007KT 35/16 A3003 RMK A01 T03530155  RH  031%=      5-min Rain = 0
KME1 031930Z 17005KT 35/15 A3003 RMK A01 T03510149  RH  030%=      5-min Rain = 0
KME1 031931Z 15005KT 35/16 A3003 RMK A01 T03500157  RH  032%=      5-min Rain = 0
KME1 031932Z 12007KT 35/15 A3003 RMK A01 T03510154  RH  031%=      5-min Rain = 0
KME1 031933Z 12006KT 35/15 A3003 RMK A01 T03510153  RH  031%=      5-min Rain = 0
KME1 031934Z 11007KT 35/16 A3003 RMK A01 T03500160  RH  032%=      5-min Rain = 0
KME1 031935Z 08005KT 35/16 A3003 RMK A01 T03520159  RH  032%=      5-min Rain = 0
KME1 031936Z 11009KT 35/16 A3003 RMK A01 T03520159  RH  032%=      5-min Rain = 0
KME1 031937Z 12012KT 35/16 A3003 RMK A01 T03520159  RH  032%=      5-min Rain = 0
KME1 031938Z 13009KT 35/16 A3003 RMK A01 T03520161  RH  032%=      5-min Rain = 0
KME1 031939Z 12010KT 35/16 A3003 RMK A01 T03540160  RH  032%=      5-min Rain = 0
KME1 031940Z 14010KT 35/16 A3003 RMK A01 T03530160  RH  032%=      5-min Rain = 0
KME1 031941Z 15007KT 35/16 A3003 RMK A01 T03530159  RH  032%=      5-min Rain = 0
KME1 031942Z 15007KT 36/16 A3003 RMK A01 T03560161  RH  032%=      5-min Rain = 0
KME1 031943Z 14009KT 36/16 A3003 RMK A01 T03580160  RH  031%=      5-min Rain = 0
KME1 031944Z 16005KT 36/15 A3003 RMK A01 T03580154  RH  030%=      5-min Rain = 0
KME1 031945Z 17002KT 36/15 A3003 RMK A01 T03550149  RH  029%=      5-min Rain = 0
KME1 031946Z 16004KT 35/15 A3002 RMK A01 T03530154  RH  031%=      5-min Rain = 0
KME1 031947Z 15004KT 36/16 A3003 RMK A01 T03550157  RH  031%=      5-min Rain = 0
KME1 031948Z 16005KT 36/16 A3003 RMK A01 T03560156  RH  031%=      5-min Rain = 0
KME1 031949Z 17009KT 36/15 A3002 RMK A01 T03550150  RH  029%=      5-min Rain = 0
KME1 031950Z 18007KT 36/15 A3002 RMK A01 T03550145  RH  029%=      5-min Rain = 0
KME1 031951Z 18006KT 35/14 A3002 RMK A01 T03540144  RH  029%=      5-min Rain = 0
KME1 031952Z 19006KT 35/15 A3002 RMK A01 T03520145  RH  029%=      5-min Rain = 0
KME1 031953Z 18009KT 35/15 A3002 RMK A01 T03520152  RH  030%=      5-min Rain = 0
KME1 031954Z 17011KT 35/16 A3002 RMK A01 T03540159  RH  031%=      5-min Rain = 0
KME1 031955Z 17009KT 36/16 A3002 RMK A01 T03580158  RH  030%=      5-min Rain = 0
KME1 031956Z 18012KT 36/16 A3002 RMK A01 T03590155  RH  030%=      5-min Rain = 0
KME1 031957Z 17013KT 36/15 A3002 RMK A01 T03580151  RH  029%=      5-min Rain = 0
KME1 031958Z 18008KT 36/15 A3002 RMK A01 T03560153  RH  030%=      5-min Rain = 0
KME1 031959Z 20007KT 35/15 A3002 RMK A01 T03540150  RH  030%=      5-min Rain = 0
KME1 032000Z 20010KT 35/15 A3002 RMK A01 T03530151  RH  030%=      5-min Rain = 0
KME1 032001Z 18008KT 35/15 A3002 RMK A01 T03540150  RH  030%=      5-min Rain = 0
KME1 032002Z 18007KT 35/15 A3002 RMK A01 T03530149  RH  030%=      5-min Rain = 0
KME1 032003Z 18007KT 35/15 A3002 RMK A01 T03520151  RH  030%=      5-min Rain = 0
KME1 032004Z 18010KT 35/15 A3002 RMK A01 T03540149  RH  030%=      5-min Rain = 0
KME1 032005Z 18006KT 36/15 A3002 RMK A01 T03550151  RH  030%=      5-min Rain = 0
KME1 032006Z 18003KT 36/15 A3002 RMK A01 T03550148  RH  029%=      5-min Rain = 0
KME1 032007Z 16002KT 36/15 A3002 RMK A01 T03550153  RH  030%=      5-min Rain = 0
KME1 032008Z 14004KT 36/15 A3002 RMK A01 T03570150  RH  029%=      5-min Rain = 0
KME1 032009Z 17004KT 36/15 A3002 RMK A01 T03580151  RH  029%=      5-min Rain = 0
KME1 032010Z 14002KT 36/15 A3002 RMK A01 T03570147  RH  029%=      5-min Rain = 0
KME1 032011Z 10004KT 36/16 A3001 RMK A01 T03560155  RH  030%=      5-min Rain = 0
KME1 032012Z 14006KT 36/17 A3001 RMK A01 T03570165  RH  032%=      5-min Rain = 0
KME1 032013Z 16005KT 36/16 A3001 RMK A01 T03600158  RH  030%=      5-min Rain = 0
KME1 032014Z 15009G16KT 36/16 A3001 RMK A01 T03590161  RH  031%=      5-min Rain = 0
KME1 032015Z 16011G16KT 36/16 A3001 RMK A01 T03600158  RH  030%=      5-min Rain = 0
KME1 032016Z 14007KT 36/16 A3002 RMK A01 T03590158  RH  030%=      5-min Rain = 0
KME1 032017Z 15006KT 36/16 A3002 RMK A01 T03580160  RH  031%=      5-min Rain = 0
KME1 032018Z 16010KT 36/16 A3002 RMK A01 T03590155  RH  030%=      5-min Rain = 0
KME1 032019Z 18008KT 36/15 A3002 RMK A01 T03590145  RH  028%=      5-min Rain = 0
KME1 032020Z 18008KT 36/15 A3001 RMK A01 T03560145  RH  028%=      5-min Rain = 0
KME1 032021Z 14008KT 35/15 A3001 RMK A01 T03540145  RH  029%=      5-min Rain = 0
KME1 032022Z 13005KT 35/14 A3002 RMK A01 T03530143  RH  029%=      5-min Rain = 0
KME1 032023Z 14005KT 35/15 A3001 RMK A01 T03520147  RH  029%=      5-min Rain = 0
KME1 032024Z 18010KT 36/15 A3001 RMK A01 T03550146  RH  029%=      5-min Rain = 0
KME1 032025Z 17006KT 36/14 A3001 RMK A01 T03550139  RH  027%=      5-min Rain = 0
KME1 032026Z 18007KT 36/15 A3001 RMK A01 T03550147  RH  029%=      5-min Rain = 0
KME1 032027Z 20008KT 36/15 A3001 RMK A01 T03570145  RH  028%=      5-min Rain = 0
KME1 032028Z 22009KT 36/15 A3001 RMK A01 T03590148  RH  029%=      5-min Rain = 0
KME1 032029Z 20007KT 36/15 A3001 RMK A01 T03610147  RH  028%=      5-min Rain = 0
KME1 032030Z 22007KT 36/15 A3001 RMK A01 T03610148  RH  028%=      5-min Rain = 0
KME1 032031Z 22007KT 36/15 A3001 RMK A01 T03610145  RH  028%=      5-min Rain = 0
KME1 032032Z 21004KT 36/15 A3001 RMK A01 T03600149  RH  028%=      5-min Rain = 0
KME1 032033Z 19004KT 36/15 A3001 RMK A01 T03610145  RH  028%=      5-min Rain = 0
KME1 032034Z 16006KT 36/15 A3001 RMK A01 T03610150  RH  029%=      5-min Rain = 0
KME1 032035Z 14006KT 36/15 A3001 RMK A01 T03610149  RH  028%=      5-min Rain = 0
KME1 032036Z 14008KT 36/15 A3001 RMK A01 T03590145  RH  028%=      5-min Rain = 0
KME1 032037Z 16006KT 36/15 A3001 RMK A01 T03580145  RH  028%=      5-min Rain = 0
KME1 032038Z 18007KT 36/15 A3001 RMK A01 T03580152  RH  029%=      5-min Rain = 0
KME1 032039Z 19005KT 36/15 A3001 RMK A01 T03610145  RH  028%=      5-min Rain = 0
KME1 032040Z 19007KT 36/15 A3001 RMK A01 T03600146  RH  028%=      5-min Rain = 0
KME1 032041Z 19006KT 36/15 A3001 RMK A01 T03600145  RH  028%=      5-min Rain = 0
KME1 032042Z 18010KT 36/15 A3001 RMK A01 T03600146  RH  028%=      5-min Rain = 0
KME1 032043Z 16010KT 36/15 A3001 RMK A01 T03610146  RH  028%=      5-min Rain = 0
KME1 032044Z 17011KT 36/15 A3001 RMK A01 T03610148  RH  028%=      5-min Rain = 0
KME1 032045Z 18009KT 36/15 A3001 RMK A01 T03610146  RH  028%=      5-min Rain = 0
KME1 032046Z 17008KT 36/14 A3001 RMK A01 T03610143  RH  027%=      5-min Rain = 0
KME1 032047Z 17008KT 36/14 A3001 RMK A01 T03590139  RH  027%=      5-min Rain = 0
KME1 032048Z 17009KT 36/14 A3001 RMK A01 T03580135  RH  026%=      5-min Rain = 0
KME1 032049Z 17007KT 36/13 A3001 RMK A01 T03560133  RH  026%=      5-min Rain = 0
KME1 032050Z 16005KT 36/14 A3001 RMK A01 T03570138  RH  027%=      5-min Rain = 0
KME1 032051Z 17008KT 36/14 A30 RMK A01 T03590138  RH  027%=      5-min Rain = 0
KME1 032052Z 18008KT 36/14 A30 RMK A01 T03600141  RH  027%=      5-min Rain = 0
KME1 032053Z 20008KT 36/14 A30 RMK A01 T03610136  RH  026%=      5-min Rain = 0
KME1 032054Z 21008KT 36/14 A30 RMK A01 T03600135  RH  026%=      5-min Rain = 0
KME1 032055Z 22007KT 36/14 A30 RMK A01 T03590139  RH  027%=      5-min Rain = 0
KME1 032056Z 18005KT 36/14 A30 RMK A01 T03590141  RH  027%=      5-min Rain = 0
KME1 032057Z 14005KT 36/14 A30 RMK A01 T03610143  RH  027%=      5-min Rain = 0
KME1 032058Z 15006KT 36/14 A30 RMK A01 T03610142  RH  027%=      5-min Rain = 0
KME1 032059Z 15005KT 36/15 A30 RMK A01 T03610147  RH  028%=      5-min Rain = 0
KME1 032100Z 18007KT 36/15 A30 RMK A01 T03610145  RH  028%=      5-min Rain = 0
KME1 032101Z 21008KT 36/14 A30 RMK A01 T03600140  RH  027%=      5-min Rain = 0
KME1 032102Z 16008KT 36/15 A30 RMK A01 T03610147  RH  028%=      5-min Rain = 0
KME1 032103Z 15009KT 36/14 A30 RMK A01 T03640141  RH  027%=      5-min Rain = 0
KME1 032104Z 17007KT 36/15 A30 RMK A01 T03640151  RH  028%=      5-min Rain = 0
KME1 032105Z 16011KT 37/14 A30 RMK A01 T03650140  RH  026%=      5-min Rain = 0
KME1 032106Z 16007KT 36/14 A30 RMK A01 T03620139  RH  026%=      5-min Rain = 0
KME1 032107Z 16007KT 36/14 A30 RMK A01 T03600141  RH  027%=      5-min Rain = 0
KME1 032108Z 18010KT 36/14 A30 RMK A01 T03590140  RH  027%=      5-min Rain = 0
KME1 032109Z 19008KT 36/14 A30 RMK A01 T03590139  RH  027%=      5-min Rain = 0
KME1 032110Z 18009G14KT 36/14 A30 RMK A01 T03580139  RH  027%=      5-min Rain = 0
KME1 032111Z 16008KT 36/14 A30 RMK A01 T03570139  RH  027%=      5-min Rain = 0
KME1 032112Z 16007KT 36/14 A30 RMK A01 T03570141  RH  028%=      5-min Rain = 0
KME1 032113Z 16006KT 36/14 A2999 RMK A01 T03580137  RH  027%=      5-min Rain = 0
KME1 032114Z 17006KT 36/13 A2999 RMK A01 T03580132  RH  026%=      5-min Rain = 0
KME1 032115Z 19007KT 36/13 A2999 RMK A01 T03560132  RH  026%=      5-min Rain = 0
KME1 032116Z 21009KT 36/13 A2999 RMK A01 T03560134  RH  026%=      5-min Rain = 0
KME1 032117Z 22008KT 36/13 A2999 RMK A01 T03590134  RH  026%=      5-min Rain = 0
KME1 032118Z 21007KT 36/14 A2999 RMK A01 T03610135  RH  026%=      5-min Rain = 0
KME1 032119Z 19005KT 36/13 A2999 RMK A01 T03610134  RH  026%=      5-min Rain = 0
KME1 032120Z 17009KT 36/14 A2999 RMK A01 T03630142  RH  027%=      5-min Rain = 0
KME1 032121Z 18010KT 36/14 A2999 RMK A01 T03640140  RH  026%=      5-min Rain = 0
KME1 032122Z 19007KT 36/14 A2999 RMK A01 T03620136  RH  026%=      5-min Rain = 0
KME1 032123Z 20006KT 36/14 A2999 RMK A01 T03600138  RH  027%=      5-min Rain = 0
KME1 032124Z 16007KT 36/14 A2999 RMK A01 T03600140  RH  027%=      5-min Rain = 0
KME1 032125Z 15006KT 36/15 A2999 RMK A01 T03620148  RH  028%=      5-min Rain = 0
KME1 032126Z 15008KT 36/14 A2999 RMK A01 T03640141  RH  027%=      5-min Rain = 0
KME1 032127Z 15010KT 36/14 A2999 RMK A01 T03630139  RH  026%=      5-min Rain = 0
KME1 032128Z 14008KT 36/14 A2999 RMK A01 T03600136  RH  026%=      5-min Rain = 0
KME1 032129Z 13008KT 36/14 A2999 RMK A01 T03580136  RH  027%=      5-min Rain = 0
KME1 032130Z 13007KT 36/14 A2999 RMK A01 T03570139  RH  027%=      5-min Rain = 0
KME1 032131Z 14007KT 36/14 A2999 RMK A01 T03590135  RH  026%=      5-min Rain = 0
KME1 032132Z 14007KT 36/13 A2999 RMK A01 T03590132  RH  026%=      5-min Rain = 0
KME1 032133Z 17006KT 36/14 A2998 RMK A01 T03580136  RH  027%=      5-min Rain = 0
KME1 032134Z 18007KT 36/13 A2998 RMK A01 T03590134  RH  026%=      5-min Rain = 0
KME1 032135Z 18006KT 36/14 A2998 RMK A01 T03600139  RH  027%=      5-min Rain = 0
KME1 032136Z 18005KT 36/13 A2998 RMK A01 T03610132  RH  025%=      5-min Rain = 0
KME1 032137Z 17006KT 36/14 A2998 RMK A01 T03600135  RH  026%=      5-min Rain = 0
KME1 032138Z 16009KT 36/14 A2998 RMK A01 T03600137  RH  026%=      5-min Rain = 0
KME1 032139Z 15006KT 36/14 A2998 RMK A01 T03620136  RH  026%=      5-min Rain = 0
KME1 032140Z 16004KT 36/14 A2998 RMK A01 T03630139  RH  026%=      5-min Rain = 0
KME1 032141Z 16007KT 37/14 A2998 RMK A01 T03650137  RH  026%=      5-min Rain = 0
KME1 032142Z 17006KT 37/13 A2998 RMK A01 T03660132  RH  025%=      5-min Rain = 0
KME1 032143Z 20005KT 37/13 A2998 RMK A01 T03650129  RH  024%=      5-min Rain = 0
KME1 032144Z 17008KT 37/13 A2998 RMK A01 T03650133  RH  025%=      5-min Rain = 0
KME1 032145Z 17009KT 36/13 A2998 RMK A01 T03640132  RH  025%=      5-min Rain = 0
KME1 032146Z 17007KT 36/13 A2998 RMK A01 T03640131  RH  025%=      5-min Rain = 0
KME1 032147Z 16007KT 36/13 A2998 RMK A01 T03620133  RH  025%=      5-min Rain = 0
KME1 032148Z 16007KT 36/13 A2998 RMK A01 T03620131  RH  025%=      5-min Rain = 0
KME1 032149Z 16006KT 36/13 A2998 RMK A01 T03620132  RH  025%=      5-min Rain = 0
KME1 032150Z 15005KT 36/14 A2998 RMK A01 T03620136  RH  026%=      5-min Rain = 0
KME1 032151Z 16004KT 36/13 A2998 RMK A01 T03640131  RH  025%=      5-min Rain = 0
KME1 032152Z 17003KT 36/13 A2998 RMK A01 T03630128  RH  024%=      5-min Rain = 0
KME1 032153Z 15005KT 36/13 A2998 RMK A01 T03620126  RH  024%=      5-min Rain = 0
KME1 032154Z 20007KT 36/13 A2998 RMK A01 T03620130  RH  025%=      5-min Rain = 0
KME1 032155Z 18011KT 36/13 A2997 RMK A01 T03630131  RH  025%=      5-min Rain = 0
KME1 032156Z 17011KT 37/13 A2997 RMK A01 T03650126  RH  024%=      5-min Rain = 0
KME1 032157Z 18008KT 36/13 A2998 RMK A01 T03640128  RH  024%=      5-min Rain = 0
KME1 032158Z 17007KT 36/13 A2998 RMK A01 T03630125  RH  024%=      5-min Rain = 0
KME1 032159Z 12007KT 36/13 A2997 RMK A01 T03630128  RH  024%=      5-min Rain = 0
KME1 032200Z 15010G15KT 36/13 A2997 RMK A01 T03630128  RH  024%=      5-min Rain = 0
KME1 032201Z 16005KT 36/13 A2997 RMK A01 T03640127  RH  024%=      5-min Rain = 0
KME1 032202Z 17008KT 37/13 A2997 RMK A01 T03660125  RH  024%=      5-min Rain = 0
KME1 032203Z 15008KT 37/12 A2997 RMK A01 T03670120  RH  023%=      5-min Rain = 0
KME1 032204Z 17008KT 37/12 A2997 RMK A01 T03670116  RH  022%=      5-min Rain = 0
KME1 032205Z 17007KT 37/11 A2997 RMK A01 T03660109  RH  021%=      5-min Rain = 0
KME1 032206Z 20006KT 37/11 A2997 RMK A01 T03650113  RH  022%=      5-min Rain = 0
KME1 032207Z 19007KT 37/12 A2997 RMK A01 T03660116  RH  022%=      5-min Rain = 0
KME1 032208Z 20006KT 37/12 A2997 RMK A01 T03670120  RH  023%=      5-min Rain = 0
KME1 032209Z 19006KT 37/12 A2997 RMK A01 T03680117  RH  022%=      5-min Rain = 0
KME1 032210Z 19006KT 37/12 A2997 RMK A01 T03670121  RH  023%=      5-min Rain = 0
KME1 032211Z 17005KT 37/13 A2997 RMK A01 T03670125  RH  023%=      5-min Rain = 0
KME1 032212Z 15008KT 37/13 A2997 RMK A01 T03690130  RH  024%=      5-min Rain = 0
KME1 032213Z 16006KT 37/13 A2997 RMK A01 T03690127  RH  023%=      5-min Rain = 0
KME1 032214Z 17006KT 37/13 A2997 RMK A01 T03680127  RH  024%=      5-min Rain = 0
KME1 032215Z 18006KT 37/13 A2997 RMK A01 T03660126  RH  024%=      5-min Rain = 0
KME1 032216Z 19005KT 36/13 A2997 RMK A01 T03640125  RH  024%=      5-min Rain = 0
KME1 032217Z 16005KT 36/13 A2997 RMK A01 T03640128  RH  024%=      5-min Rain = 0
KME1 032218Z 14004KT 36/13 A2997 RMK A01 T03640126  RH  024%=      5-min Rain = 0
KME1 032219Z 17004KT 37/13 A2997 RMK A01 T03650128  RH  024%=      5-min Rain = 0
KME1 032220Z 16009KT 37/13 A2997 RMK A01 T03650127  RH  024%=      5-min Rain = 0
KME1 032221Z 16010KT 37/13 A2997 RMK A01 T03650130  RH  024%=      5-min Rain = 0
KME1 032222Z 15010KT 37/12 A2997 RMK A01 T03650124  RH  024%=      5-min Rain = 0
KME1 032223Z 16007KT 36/12 A2997 RMK A01 T03630123  RH  024%=      5-min Rain = 0
KME1 032224Z 15005KT 36/12 A2997 RMK A01 T03620122  RH  024%=      5-min Rain = 0
KME1 032225Z 16005KT 36/12 A2997 RMK A01 T03620118  RH  023%=      5-min Rain = 0
KME1 032226Z 17007KT 36/12 A2997 RMK A01 T03620121  RH  023%=      5-min Rain = 0
KME1 032227Z 18004KT 36/12 A2997 RMK A01 T03620119  RH  023%=      5-min Rain = 0
KME1 032228Z 19006KT 36/12 A2997 RMK A01 T03630117  RH  023%=      5-min Rain = 0
KME1 032229Z 16008KT 36/13 A2996 RMK A01 T03640125  RH  024%=      5-min Rain = 0
KME1 032230Z 11010KT 37/14 A2996 RMK A01 T03670135  RH  025%=      5-min Rain = 0
KME1 032231Z 13008KT 37/13 A2997 RMK A01 T03680128  RH  024%=      5-min Rain = 0
KME1 032232Z 15007KT 37/13 A2997 RMK A01 T03650127  RH  024%=      5-min Rain = 0
KME1 032233Z 15010KT 36/12 A2997 RMK A01 T03640124  RH  024%=      5-min Rain = 0
KME1 032234Z 11010KT 36/12 A2997 RMK A01 T03640122  RH  023%=      5-min Rain = 0
KME1 032235Z 10006KT 36/12 A2997 RMK A01 T03610117  RH  023%=      5-min Rain = 0
KME1 032236Z 10006KT 36/12 A2997 RMK A01 T03590120  RH  024%=      5-min Rain = 0
KME1 032237Z 09007KT 36/13 A2996 RMK A01 T03600125  RH  024%=      5-min Rain = 0
KME1 032238Z 08007KT 36/12 A2996 RMK A01 T03610118  RH  023%=      5-min Rain = 0
KME1 032239Z 09004KT 36/12 A2996 RMK A01 T03600116  RH  023%=      5-min Rain = 0
KME1 032240Z 15008KT 36/12 A2996 RMK A01 T03600124  RH  024%=      5-min Rain = 0
KME1 032241Z 13009KT 36/13 A2996 RMK A01 T03620125  RH  024%=      5-min Rain = 0
KME1 032242Z 14008KT 36/12 A2996 RMK A01 T03610124  RH  024%=      5-min Rain = 0
KME1 032243Z 14008KT 36/13 A2996 RMK A01 T03610125  RH  024%=      5-min Rain = 0
KME1 032244Z 15006KT 36/12 A2997 RMK A01 T03610124  RH  024%=      5-min Rain = 0
KME1 032245Z 14004KT 36/12 A2996 RMK A01 T03620123  RH  024%=      5-min Rain = 0
KME1 032246Z 14006KT 36/12 A2997 RMK A01 T03620123  RH  024%=      5-min Rain = 0
KME1 032247Z 14005KT 36/13 A2997 RMK A01 T03620125  RH  024%=      5-min Rain = 0
KME1 032248Z 18007KT 36/13 A2997 RMK A01 T03620126  RH  024%=      5-min Rain = 0
KME1 032249Z 17009KT 36/12 A2997 RMK A01 T03630124  RH  024%=      5-min Rain = 0
KME1 032250Z 16008KT 36/12 A2997 RMK A01 T03640120  RH  023%=      5-min Rain = 0
KME1 032251Z 14008KT 36/12 A2997 RMK A01 T03630119  RH  023%=      5-min Rain = 0
KME1 032252Z 14005KT 36/12 A2997 RMK A01 T03620117  RH  023%=      5-min Rain = 0
KME1 032253Z 15007KT 36/12 A2996 RMK A01 T03600121  RH  024%=      5-min Rain = 0
KME1 032254Z 15008KT 36/12 A2997 RMK A01 T03610124  RH  024%=      5-min Rain = 0
KME1 032255Z 16010KT 36/13 A2997 RMK A01 T03630126  RH  024%=      5-min Rain = 0
KME1 032256Z 16006KT 36/12 A2997 RMK A01 T03630116  RH  023%=      5-min Rain = 0
KME1 032257Z 15007KT 36/12 A2997 RMK A01 T03630118  RH  023%=      5-min Rain = 0
KME1 032258Z 16007KT 36/12 A2997 RMK A01 T03620119  RH  023%=      5-min Rain = 0
KME1 032259Z 16009KT 36/12 A2997 RMK A01 T03630117  RH  023%=      5-min Rain = 0
KME1 032300Z 16008KT 36/11 A2996 RMK A01 T03640113  RH  022%=      5-min Rain = 0
KME1 032301Z 16007KT 36/12 A2996 RMK A01 T03640117  RH  023%=      5-min Rain = 0
KME1 032302Z 16007KT 36/11 A2996 RMK A01 T03640112  RH  022%=      5-min Rain = 0
KME1 032303Z 15005KT 36/11 A2996 RMK A01 T03640109  RH  021%=      5-min Rain = 0
KME1 032304Z 16004KT 36/11 A2996 RMK A01 T03630109  RH  022%=      5-min Rain = 0
KME1 032305Z 15005KT 36/11 A2996 RMK A01 T03630109  RH  022%=      5-min Rain = 0
KME1 032306Z 15005KT 36/12 A2996 RMK A01 T03630115  RH  022%=      5-min Rain = 0
KME1 032307Z 15003KT 36/11 A2996 RMK A01 T03640106  RH  021%=      5-min Rain = 0
KME1 032308Z 17003KT 36/11 A2996 RMK A01 T03640107  RH  021%=      5-min Rain = 0
KME1 032309Z 17003KT 36/11 A2996 RMK A01 T03640105  RH  021%=      5-min Rain = 0
KME1 032310Z 18002KT 36/11 A2996 RMK A01 T03630108  RH  021%=      5-min Rain = 0
KME1 032311Z 19003KT 36/12 A2996 RMK A01 T03640115  RH  022%=      5-min Rain = 0
KME1 032312Z 16005KT 37/12 A2996 RMK A01 T03650115  RH  022%=      5-min Rain = 0
KME1 032313Z 17006KT 37/12 A2996 RMK A01 T03650121  RH  023%=      5-min Rain = 0
KME1 032314Z 17005KT 37/13 A2996 RMK A01 T03670132  RH  025%=      5-min Rain = 0
KME1 032315Z 17006KT 37/13 A2996 RMK A01 T03680130  RH  024%=      5-min Rain = 0
KME1 032316Z 17006KT 37/12 A2996 RMK A01 T03670122  RH  023%=      5-min Rain = 0
KME1 032317Z 18005KT 37/13 A2996 RMK A01 T03650126  RH  024%=      5-min Rain = 0
KME1 032318Z 19006KT 37/13 A2996 RMK A01 T03650126  RH  024%=      5-min Rain = 0
KME1 032319Z 19006KT 36/12 A2996 RMK A01 T03640121  RH  023%=      5-min Rain = 0
KME1 032320Z 20004KT 36/12 A2996 RMK A01 T03630122  RH  024%=      5-min Rain = 0
KME1 032321Z 20005KT 36/12 A2996 RMK A01 T03620121  RH  023%=      5-min Rain = 0
KME1 032322Z 19005KT 36/12 A2996 RMK A01 T03620123  RH  024%=      5-min Rain = 0
KME1 032323Z 17007KT 36/12 A2996 RMK A01 T03620123  RH  024%=      5-min Rain = 0
KME1 032324Z 16008KT 36/12 A2996 RMK A01 T03620124  RH  024%=      5-min Rain = 0
KME1 032325Z 15007KT 36/12 A2996 RMK A01 T03620124  RH  024%=      5-min Rain = 0
KME1 032326Z 15007KT 36/12 A2996 RMK A01 T03620123  RH  024%=      5-min Rain = 0
KME1 032327Z 14008KT 36/12 A2996 RMK A01 T03620123  RH  024%=      5-min Rain = 0
KME1 032328Z 14007KT 36/12 A2996 RMK A01 T03620122  RH  024%=      5-min Rain = 0
KME1 032329Z 15006KT 36/12 A2996 RMK A01 T03610118  RH  023%=      5-min Rain = 0
KME1 032330Z 13005KT 36/12 A2996 RMK A01 T03600124  RH  024%=      5-min Rain = 0
KME1 032331Z 12005KT 36/12 A2996 RMK A01 T03600121  RH  024%=      5-min Rain = 0
KME1 032332Z 12008KT 36/12 A2996 RMK A01 T03600120  RH  024%=      5-min Rain = 0
KME1 032333Z 14008KT 36/12 A2996 RMK A01 T03600122  RH  024%=      5-min Rain = 0
KME1 032334Z 15009KT 36/12 A2996 RMK A01 T03600122  RH  024%=      5-min Rain = 0
KME1 032335Z 14007KT 36/12 A2996 RMK A01 T03610120  RH  024%=      5-min Rain = 0
KME1 032336Z 14005KT 36/12 A2996 RMK A01 T03600122  RH  024%=      5-min Rain = 0
KME1 032337Z 12008KT 36/12 A2996 RMK A01 T03600122  RH  024%=      5-min Rain = 0
KME1 032338Z 12007KT 36/12 A2996 RMK A01 T03610120  RH  023%=      5-min Rain = 0
KME1 032339Z 12006KT 36/12 A2996 RMK A01 T03600121  RH  024%=      5-min Rain = 0
KME1 032340Z 12008KT 36/12 A2996 RMK A01 T03590122  RH  024%=      5-min Rain = 0
KME1 032341Z 12008KT 36/12 A2996 RMK A01 T03590119  RH  024%=      5-min Rain = 0
KME1 032342Z 12007KT 36/12 A2996 RMK A01 T03590120  RH  024%=      5-min Rain = 0
KME1 032343Z 13007KT 36/12 A2996 RMK A01 T03580124  RH  024%=      5-min Rain = 0
KME1 032344Z 14008KT 36/12 A2996 RMK A01 T03580120  RH  024%=      5-min Rain = 0
KME1 032345Z 14007KT 36/12 A2996 RMK A01 T03580116  RH  023%=      5-min Rain = 0
KME1 032346Z 15007KT 36/12 A2996 RMK A01 T03580120  RH  024%=      5-min Rain = 0
KME1 032347Z 14005KT 36/12 A2996 RMK A01 T03580124  RH  024%=      5-min Rain = 0
KME1 032348Z 13004KT 36/12 A2996 RMK A01 T03600123  RH  024%=      5-min Rain = 0
KME1 032349Z 13004KT 36/12 A2996 RMK A01 T03610121  RH  024%=      5-min Rain = 0
KME1 032350Z 14005KT 36/12 A2996 RMK A01 T03610121  RH  024%=      5-min Rain = 0
KME1 032351Z 14006KT 36/12 A2996 RMK A01 T03610124  RH  024%=      5-min Rain = 0
KME1 032352Z 15006KT 36/12 A2996 RMK A01 T03610121  RH  024%=      5-min Rain = 0
KME1 032353Z 14008KT 36/12 A2996 RMK A01 T03600118  RH  023%=      5-min Rain = 0
KME1 032354Z 14008KT 36/12 A2996 RMK A01 T03590121  RH  024%=      5-min Rain = 0
KME1 032355Z 13007KT 36/12 A2996 RMK A01 T03580121  RH  024%=      5-min Rain = 0
KME1 032356Z 13009KT 36/12 A2996 RMK A01 T03580118  RH  024%=      5-min Rain = 0
KME1 032357Z 14008KT 36/12 A2996 RMK A01 T03580117  RH  023%=      5-min Rain = 0
KME1 032358Z 15008KT 36/12 A2996 RMK A01 T03580118  RH  024%=      5-min Rain = 0
KME1 032359Z 15009KT 36/12 A2996 RMK A01 T03570116  RH  023%=      5-min Rain = 0
KME1 040000Z 15007KT 36/12 A2996 RMK A01 T03570119  RH  024%=      5-min Rain = 0
KME1 040001Z 16007KT 36/12 A2996 RMK A01 T03570118  RH  024%=      5-min Rain = 0
KME1 040002Z 17006KT 36/12 A2996 RMK A01 T03570119  RH  024%=      5-min Rain = 0
KME1 040003Z 17006KT 36/12 A2996 RMK A01 T03570117  RH  024%=      5-min Rain = 0
KME1 040004Z 17008KT 36/12 A2996 RMK A01 T03570115  RH  023%=      5-min Rain = 0
KME1 040005Z 17007KT 36/12 A2996 RMK A01 T03570115  RH  023%=      5-min Rain = 0
KME1 040006Z 16006KT 36/11 A2996 RMK A01 T03570114  RH  023%=      5-min Rain = 0
KME1 040007Z 17005KT 36/12 A2996 RMK A01 T03570116  RH  023%=      5-min Rain = 0
KME1 040008Z 17005KT 36/11 A2996 RMK A01 T03570111  RH  023%=      5-min Rain = 0
KME1 040009Z 15004KT 36/12 A2996 RMK A01 T03570117  RH  023%=      5-min Rain = 0
KME1 040010Z 15004KT 36/12 A2996 RMK A01 T03580117  RH  023%=      5-min Rain = 0
KME1 040011Z 15004KT 36/12 A2996 RMK A01 T03580118  RH  024%=      5-min Rain = 0
KME1 040012Z 16005KT 36/12 A2996 RMK A01 T03590119  RH  024%=      5-min Rain = 0
KME1 040013Z 16005KT 36/12 A2996 RMK A01 T03590117  RH  023%=      5-min Rain = 0
KME1 040014Z 13005KT 36/12 A2996 RMK A01 T03590122  RH  024%=      5-min Rain = 0
KME1 040015Z 14005KT 36/12 A2996 RMK A01 T03580122  RH  024%=      5-min Rain = 0
KME1 040016Z 13004KT 36/12 A2996 RMK A01 T03570120  RH  024%=      5-min Rain = 0
KME1 040017Z 16004KT 36/13 A2996 RMK A01 T03570127  RH  025%=      5-min Rain = 0
KME1 040018Z 19006KT 36/12 A2996 RMK A01 T03570123  RH  024%=      5-min Rain = 0
KME1 040019Z 17007KT 36/12 A2996 RMK A01 T03560124  RH  025%=      5-min Rain = 0
KME1 040020Z 15010KT 36/12 A2996 RMK A01 T03560122  RH  024%=      5-min Rain = 0
KME1 040021Z 15007KT 36/13 A2996 RMK A01 T03550125  RH  025%=      5-min Rain = 0
KME1 040022Z 15007KT 36/12 A2996 RMK A01 T03550120  RH  024%=      5-min Rain = 0
KME1 040023Z 14006KT 35/12 A2996 RMK A01 T03540121  RH  025%=      5-min Rain = 0
KME1 040024Z 13006KT 35/12 A2996 RMK A01 T03540117  RH  024%=      5-min Rain = 0
KME1 040025Z 14006KT 35/12 A2996 RMK A01 T03540119  RH  024%=      5-min Rain = 0
KME1 040026Z 14007KT 35/12 A2996 RMK A01 T03530115  RH  024%=      5-min Rain = 0
KME1 040027Z 15006KT 35/12 A2996 RMK A01 T03530119  RH  024%=      5-min Rain = 0
KME1 040028Z 17005KT 35/12 A2996 RMK A01 T03530123  RH  025%=      5-min Rain = 0
KME1 040029Z 17004KT 35/13 A2996 RMK A01 T03530126  RH  025%=      5-min Rain = 0
KME1 040030Z 15004KT 35/12 A2996 RMK A01 T03530123  RH  025%=      5-min Rain = 0
KME1 040031Z 15005KT 35/12 A2996 RMK A01 T03530121  RH  025%=      5-min Rain = 0
KME1 040032Z 16005KT 35/12 A2996 RMK A01 T03530122  RH  025%=      5-min Rain = 0
KME1 040033Z 15003KT 35/12 A2996 RMK A01 T03540124  RH  025%=      5-min Rain = 0
KME1 040034Z 16006KT 35/13 A2996 RMK A01 T03530125  RH  025%=      5-min Rain = 0
KME1 040035Z 17006KT 35/11 A2996 RMK A01 T03530112  RH  023%=      5-min Rain = 0
KME1 040036Z 17006KT 35/11 A2996 RMK A01 T03530111  RH  023%=      5-min Rain = 0
KME1 040037Z 17007KT 35/11 A2996 RMK A01 T03530108  RH  023%=      5-min Rain = 0
KME1 040038Z 17006KT 35/11 A2996 RMK A01 T03520110  RH  023%=      5-min Rain = 0
KME1 040039Z 17005KT 35/11 A2996 RMK A01 T03520114  RH  024%=      5-min Rain = 0
KME1 040040Z 17004KT 35/12 A2996 RMK A01 T03520117  RH  024%=      5-min Rain = 0
KME1 040041Z 17005KT 35/11 A2996 RMK A01 T03510113  RH  024%=      5-min Rain = 0
KME1 040042Z 17005KT 35/11 A2996 RMK A01 T03510114  RH  024%=      5-min Rain = 0
KME1 040043Z 18005KT 35/12 A2996 RMK A01 T03510117  RH  024%=      5-min Rain = 0
KME1 040044Z 17004KT 35/13 A2996 RMK A01 T03500125  RH  026%=      5-min Rain = 0
KME1 040045Z 17004KT 35/13 A2996 RMK A01 T03500125  RH  026%=      5-min Rain = 0
KME1 040046Z 17004KT 35/12 A2996 RMK A01 T03490123  RH  026%=      5-min Rain = 0
KME1 040047Z 17004KT 35/13 A2996 RMK A01 T03490126  RH  026%=      5-min Rain = 0
KME1 040048Z 16003KT 35/13 A2996 RMK A01 T03480127  RH  026%=      5-min Rain = 0
KME1 040049Z 16004KT 35/13 A2996 RMK A01 T03480128  RH  027%=      5-min Rain = 0
KME1 040050Z 15003KT 35/13 A2996 RMK A01 T03480129  RH  027%=      5-min Rain = 0
KME1 040051Z 15002KT 35/13 A2996 RMK A01 T03480132  RH  027%=      5-min Rain = 0
KME1 040052Z 15003KT 35/14 A2996 RMK A01 T03470135  RH  028%=      5-min Rain = 0
KME1 040053Z 16003KT 35/13 A2996 RMK A01 T03470130  RH  027%=      5-min Rain = 0
KME1 040054Z 16004KT 35/13 A2996 RMK A01 T03470128  RH  027%=      5-min Rain = 0
KME1 040055Z 15003KT 35/13 A2996 RMK A01 T03470128  RH  027%=      5-min Rain = 0
KME1 040056Z 15002KT 35/13 A2996 RMK A01 T03470132  RH  027%=      5-min Rain = 0
KME1 040057Z 15006KT 35/12 A2996 RMK A01 T03460124  RH  026%=      5-min Rain = 0
KME1 040058Z 15005KT 35/12 A2996 RMK A01 T03460121  RH  026%=      5-min Rain = 0
KME1 040059Z 16005KT 35/12 A2996 RMK A01 T03460120  RH  026%=      5-min Rain = 0
KME1 040100Z 16004KT 35/12 A2996 RMK A01 T03450123  RH  026%=      5-min Rain = 0
KME1 040101Z 15004KT 35/12 A2996 RMK A01 T03450123  RH  026%=      5-min Rain = 0
KME1 040102Z 16005KT 34/13 A2996 RMK A01 T03440126  RH  027%=      5-min Rain = 0
KME1 040103Z 15003KT 34/13 A2996 RMK A01 T03430126  RH  027%=      5-min Rain = 0
KME1 040104Z 15005KT 34/13 A2996 RMK A01 T03420127  RH  027%=      5-min Rain = 0
KME1 040105Z 15004KT 34/13 A2996 RMK A01 T03420126  RH  027%=      5-min Rain = 0
KME1 040106Z 15005KT 34/13 A2996 RMK A01 T03410125  RH  027%=      5-min Rain = 0
KME1 040107Z 16004KT 34/12 A2996 RMK A01 T03410123  RH  027%=      5-min Rain = 0
KME1 040108Z 15004KT 34/13 A2996 RMK A01 T03410125  RH  027%=      5-min Rain = 0
KME1 040109Z 15004KT 34/13 A2996 RMK A01 T03410126  RH  027%=      5-min Rain = 0
KME1 040110Z 15004KT 34/13 A2996 RMK A01 T03410127  RH  027%=      5-min Rain = 0
KME1 040111Z 15005KT 34/13 A2996 RMK A01 T03400127  RH  028%=      5-min Rain = 0
KME1 040112Z 14004KT 34/13 A2996 RMK A01 T03390126  RH  027%=      5-min Rain = 0
KME1 040113Z 14004KT 34/13 A2996 RMK A01 T03380128  RH  028%=      5-min Rain = 0
KME1 040114Z 14004KT 34/13 A2996 RMK A01 T03370130  RH  029%=      5-min Rain = 0
KME1 040115Z 14005KT 34/13 A2996 RMK A01 T03370127  RH  028%=      5-min Rain = 0
KME1 040116Z 13004KT 34/13 A2996 RMK A01 T03360130  RH  029%=      5-min Rain = 0
KME1 040117Z 13004KT 34/13 A2996 RMK A01 T03350130  RH  029%=      5-min Rain = 0
KME1 040118Z 13003KT 33/13 A2996 RMK A01 T03340129  RH  029%=      5-min Rain = 0
KME1 040119Z 13003KT 33/13 A2996 RMK A01 T03330129  RH  029%=      5-min Rain = 0
KME1 040120Z 13004KT 33/13 A2996 RMK A01 T03330130  RH  029%=      5-min Rain = 0
KME1 040121Z 13003KT 33/13 A2996 RMK A01 T03330132  RH  030%=      5-min Rain = 0
KME1 040122Z 13004KT 33/13 A2996 RMK A01 T03320132  RH  030%=      5-min Rain = 0
KME1 040123Z 13004KT 33/14 A2996 RMK A01 T03310135  RH  031%=      5-min Rain = 0
KME1 040124Z 12003KT 33/14 A2996 RMK A01 T03300136  RH  031%=      5-min Rain = 0
KME1 040125Z 13004KT 33/13 A2996 RMK A01 T03290134  RH  031%=      5-min Rain = 0
KME1 040126Z 14003KT 33/14 A2996 RMK A01 T03290135  RH  031%=      5-min Rain = 0
KME1 040127Z 14003KT 33/14 A2996 RMK A01 T03280136  RH  031%=      5-min Rain = 0
KME1 040128Z 13003KT 33/14 A2996 RMK A01 T03280137  RH  031%=      5-min Rain = 0
KME1 040129Z 13003KT 33/14 A2996 RMK A01 T03270141  RH  032%=      5-min Rain = 0
KME1 040130Z 13003KT 33/14 A2997 RMK A01 T03260139  RH  032%=      5-min Rain = 0
KME1 040131Z 13003KT 33/14 A2997 RMK A01 T03250140  RH  033%=      5-min Rain = 0
KME1 040132Z 13003KT 32/14 A2997 RMK A01 T03240138  RH  032%=      5-min Rain = 0
KME1 040133Z 13003KT 32/14 A2997 RMK A01 T03240137  RH  032%=      5-min Rain = 0
KME1 040134Z 12003KT 32/14 A2997 RMK A01 T03230138  RH  033%=      5-min Rain = 0
KME1 040135Z 13003KT 32/14 A2997 RMK A01 T03230140  RH  033%=      5-min Rain = 0
KME1 040136Z 13003KT 32/14 A2997 RMK A01 T03220139  RH  033%=      5-min Rain = 0
KME1 040137Z 13003KT 32/14 A2997 RMK A01 T03210139  RH  033%=      5-min Rain = 0
KME1 040138Z 12003KT 32/14 A2997 RMK A01 T03200140  RH  034%=      5-min Rain = 0
KME1 040139Z 12003KT 32/14 A2997 RMK A01 T03190140  RH  034%=      5-min Rain = 0
KME1 040140Z 12003KT 32/14 A2997 RMK A01 T03190143  RH  034%=      5-min Rain = 0
KME1 040141Z 12003KT 32/14 A2997 RMK A01 T03180143  RH  035%=      5-min Rain = 0
KME1 040142Z 12003KT 32/14 A2997 RMK A01 T03170144  RH  035%=      5-min Rain = 0
KME1 040143Z 13003KT 32/15 A2997 RMK A01 T03170146  RH  036%=      5-min Rain = 0
KME1 040144Z 12003KT 32/15 A2997 RMK A01 T03160147  RH  036%=      5-min Rain = 0
KME1 040145Z 13003KT 32/15 A2997 RMK A01 T03150149  RH  037%=      5-min Rain = 0
KME1 040146Z 13002KT 31/15 A2997 RMK A01 T03140149  RH  037%=      5-min Rain = 0
KME1 040147Z 13002KT 31/15 A2997 RMK A01 T03130150  RH  037%=      5-min Rain = 0
KME1 040148Z 13002KT 31/15 A2997 RMK A01 T03120147  RH  037%=      5-min Rain = 0
KME1 040149Z 13003KT 31/15 A2997 RMK A01 T03110146  RH  037%=      5-min Rain = 0
KME1 040150Z 14002KT 31/15 A2997 RMK A01 T03100145  RH  037%=      5-min Rain = 0
KME1 040151Z 14002KT 31/14 A2997 RMK A01 T03100143  RH  036%=      5-min Rain = 0
KME1 040152Z 14002KT 31/14 A2997 RMK A01 T03100144  RH  036%=      5-min Rain = 0
KME1 040153Z 13002KT 31/15 A2997 RMK A01 T03100147  RH  037%=      5-min Rain = 0
KME1 040154Z 12003KT 31/15 A2997 RMK A01 T03090147  RH  037%=      5-min Rain = 0
KME1 040155Z 11003KT 31/15 A2997 RMK A01 T03090147  RH  037%=      5-min Rain = 0
KME1 040156Z 11003KT 31/15 A2997 RMK A01 T03080149  RH  038%=      5-min Rain = 0
KME1 040157Z 12003KT 31/15 A2997 RMK A01 T03080149  RH  038%=      5-min Rain = 0
KME1 040158Z 12003KT 31/15 A2997 RMK A01 T03070151  RH  039%=      5-min Rain = 0
KME1 040159Z 12003KT 31/15 A2997 RMK A01 T03070151  RH  039%=      5-min Rain = 0
KME1 040200Z 11003KT 31/15 A2997 RMK A01 T03060148  RH  038%=      5-min Rain = 0
KME1 040201Z 11003KT 31/15 A2997 RMK A01 T03060151  RH  039%=      5-min Rain = 0
KME1 040202Z 12003KT 31/15 A2997 RMK A01 T03050152  RH  039%=      5-min Rain = 0
KME1 040203Z 12003KT 30/15 A2997 RMK A01 T03040152  RH  040%=      5-min Rain = 0
KME1 040204Z 12003KT 30/15 A2997 RMK A01 T03030150  RH  039%=      5-min Rain = 0
KME1 040205Z 12003KT 30/15 A2997 RMK A01 T03020149  RH  039%=      5-min Rain = 0
KME1 040206Z 12003KT 30/15 A2997 RMK A01 T03020150  RH  040%=      5-min Rain = 0
KME1 040207Z 12003KT 30/15 A2997 RMK A01 T03020150  RH  040%=      5-min Rain = 0
KME1 040208Z 12003KT 30/15 A2997 RMK A01 T03010149  RH  040%=      5-min Rain = 0
KME1 040209Z 13003KT 30/15 A2997 RMK A01 T03010147  RH  039%=      5-min Rain = 0
KME1 040210Z 13003KT 30/15 A2998 RMK A01 T03000149  RH  040%=      5-min Rain = 0
KME1 040211Z 12003KT 30/15 A2998 RMK A01 T03000150  RH  040%=      5-min Rain = 0
KME1 040212Z 13003KT 30/15 A2998 RMK A01 T02990150  RH  040%=      5-min Rain = 0
KME1 040213Z 12003KT 30/15 A2998 RMK A01 T02980150  RH  041%=      5-min Rain = 0
KME1 040214Z 12003KT 30/15 A2998 RMK A01 T02970149  RH  041%=      5-min Rain = 0
KME1 040215Z 12003KT 30/16 A2998 RMK A01 T02970156  RH  042%=      5-min Rain = 0
KME1 040216Z 11002KT 30/15 A2998 RMK A01 T02960148  RH  041%=      5-min Rain = 0
KME1 040217Z 11002KT 30/15 A2998 RMK A01 T02950147  RH  040%=      5-min Rain = 0
KME1 040218Z 11003KT 30/15 A2998 RMK A01 T02950149  RH  041%=      5-min Rain = 0
KME1 040219Z 12002KT 29/15 A2998 RMK A01 T02940152  RH  042%=      5-min Rain = 0
KME1 040220Z 12002KT 29/16 A2998 RMK A01 T02930159  RH  044%=      5-min Rain = 0
KME1 040221Z 12002KT 29/16 A2998 RMK A01 T02920160  RH  045%=      5-min Rain = 0
KME1 040222Z 13002KT 29/16 A2998 RMK A01 T02900164  RH  047%=      5-min Rain = 0
KME1 040223Z 13001KT 29/17 A2998 RMK A01 T02870172  RH  050%=      5-min Rain = 0
KME1 040224Z 13001KT 29/17 A2998 RMK A01 T02850166  RH  049%=      5-min Rain = 0
KME1 040225Z 12001KT 28/16 A2998 RMK A01 T02830160  RH  047%=      5-min Rain = 0
KME1 040226Z 12000KT 28/16 A2998 RMK A01 T02820156  RH  046%=      5-min Rain = 0
KME1 040227Z 11000KT 28/16 A2998 RMK A01 T02820155  RH  046%=      5-min Rain = 0
KME1 040228Z 12000KT 28/15 A2998 RMK A01 T02820154  RH  046%=      5-min Rain = 0
KME1 040229Z 12001KT 28/15 A2998 RMK A01 T02820153  RH  045%=      5-min Rain = 0
KME1 040230Z 12001KT 28/15 A2998 RMK A01 T02830152  RH  045%=      5-min Rain = 0
KME1 040231Z 12001KT 28/15 A2998 RMK A01 T02830153  RH  045%=      5-min Rain = 0
KME1 040232Z 12001KT 28/15 A2998 RMK A01 T02830148  RH  044%=      5-min Rain = 0
KME1 040233Z 11001KT 28/15 A2998 RMK A01 T02830148  RH  044%=      5-min Rain = 0
KME1 040234Z 12001KT 28/15 A2998 RMK A01 T02830153  RH  045%=      5-min Rain = 0
KME1 040235Z 11001KT 28/15 A2998 RMK A01 T02830152  RH  045%=      5-min Rain = 0
KME1 040236Z 12001KT 28/15 A2998 RMK A01 T02830152  RH  045%=      5-min Rain = 0
KME1 040237Z 13001KT 28/16 A2998 RMK A01 T02830156  RH  046%=      5-min Rain = 0
KME1 040238Z 13001KT 28/16 A2998 RMK A01 T02830156  RH  046%=      5-min Rain = 0
KME1 040239Z 15000KT 28/15 A2998 RMK A01 T02820153  RH  045%=      5-min Rain = 0
KME1 040240Z 00000KT 28/15 A2998 RMK A01 T02820152  RH  045%=      5-min Rain = 0
KME1 040241Z 00000KT 28/15 A2998 RMK A01 T02810154  RH  046%=      5-min Rain = 0
KME1 040242Z 00000KT 28/15 A2998 RMK A01 T02810154  RH  046%=      5-min Rain = 0
KME1 040243Z 14000KT 28/17 A2998 RMK A01 T02810165  RH  049%=      5-min Rain = 0
KME1 040244Z 00000KT 28/17 A2998 RMK A01 T02800170  RH  051%=      5-min Rain = 0
KME1 040245Z 00000KT 28/17 A2998 RMK A01 T02770174  RH  054%=      5-min Rain = 0
KME1 040246Z 00000KT 27/18 A2998 RMK A01 T02740177  RH  055%=      5-min Rain = 0
KME1 040247Z 12000KT 27/18 A2998 RMK A01 T02710179  RH  057%=      5-min Rain = 0
KME1 040248Z 00000KT 27/18 A2998 RMK A01 T02690179  RH  058%=      5-min Rain = 0
KME1 040249Z 00000KT 27/18 A2998 RMK A01 T02660177  RH  058%=      5-min Rain = 0
KME1 040250Z 00000KT 26/18 A2998 RMK A01 T02640181  RH  060%=      5-min Rain = 0
KME1 040251Z 00000KT 26/18 A2998 RMK A01 T02610179  RH  061%=      5-min Rain = 0
KME1 040252Z 00000KT 26/18 A2999 RMK A01 T02590180  RH  062%=      5-min Rain = 0
KME1 040253Z 00000KT 26/18 A2999 RMK A01 T02570182  RH  063%=      5-min Rain = 0
KME1 040254Z 00000KT 26/18 A2999 RMK A01 T02570178  RH  062%=      5-min Rain = 0
KME1 040255Z 00000KT 26/18 A2999 RMK A01 T02560175  RH  061%=      5-min Rain = 0
KME1 040256Z 00000KT 26/18 A2999 RMK A01 T02560177  RH  062%=      5-min Rain = 0
KME1 040257Z 00000KT 26/18 A2999 RMK A01 T02560177  RH  062%=      5-min Rain = 0
KME1 040258Z 00000KT 26/17 A2999 RMK A01 T02550172  RH  060%=      5-min Rain = 0
KME1 040259Z 00000KT 26/17 A2999 RMK A01 T02550168  RH  059%=      5-min Rain = 0
KME1 040300Z 00000KT 26/17 A2999 RMK A01 T02550170  RH  059%=      5-min Rain = 0
KME1 040301Z 07000KT 26/17 A2999 RMK A01 T02550169  RH  059%=      5-min Rain = 0
KME1 040302Z 07000KT 26/17 A2999 RMK A01 T02550166  RH  058%=      5-min Rain = 0
KME1 040303Z 08001KT 26/16 A2999 RMK A01 T02560161  RH  056%=      5-min Rain = 0
KME1 040304Z 08001KT 26/17 A2999 RMK A01 T02570165  RH  057%=      5-min Rain = 0
KME1 040305Z 08001KT 26/16 A2999 RMK A01 T02580162  RH  055%=      5-min Rain = 0
KME1 040306Z 09001KT 26/18 A2999 RMK A01 T02590177  RH  061%=      5-min Rain = 0
KME1 040307Z 10001KT 26/17 A2999 RMK A01 T02580168  RH  058%=      5-min Rain = 0
KME1 040308Z 10001KT 26/16 A2999 RMK A01 T02580157  RH  054%=      5-min Rain = 0
KME1 040309Z 10001KT 26/15 A2999 RMK A01 T02580154  RH  053%=      5-min Rain = 0
KME1 040310Z 10001KT 26/17 A30 RMK A01 T02600170  RH  058%=      5-min Rain = 0
KME1 040311Z 09001KT 26/18 A30 RMK A01 T02600176  RH  060%=      5-min Rain = 0
KME1 040312Z 08002KT 26/19 A30 RMK A01 T02580188  RH  065%=      5-min Rain = 0
KME1 040313Z 06002KT 25/19 A30 RMK A01 T02540186  RH  066%=      5-min Rain = 0
KME1 040314Z 07002KT 25/19 A30 RMK A01 T02510190  RH  069%=      5-min Rain = 0
KME1 040315Z 07002KT 25/17 A30 RMK A01 T02480174  RH  064%=      5-min Rain = 0
KME1 040316Z 06002KT 25/17 A30 RMK A01 T02480172  RH  063%=      5-min Rain = 0
KME1 040317Z 07002KT 25/19 A30 RMK A01 T02500186  RH  068%=      5-min Rain = 0
KME1 040318Z 07002KT 25/18 A30 RMK A01 T02480180  RH  066%=      5-min Rain = 0
KME1 040319Z 07002KT 25/18 A30 RMK A01 T02480179  RH  065%=      5-min Rain = 0
KME1 040320Z 06002KT 25/16 A30 RMK A01 T02480161  RH  058%=      5-min Rain = 0
KME1 040321Z 06001KT 25/16 A30 RMK A01 T02520158  RH  056%=      5-min Rain = 0
KME1 040322Z 07001KT 26/17 A30 RMK A01 T02550171  RH  060%=      5-min Rain = 0
KME1 040323Z 07000KT 26/17 A30 RMK A01 T02560169  RH  059%=      5-min Rain = 0
KME1 040324Z 05000KT 26/16 A3001 RMK A01 T02560157  RH  054%=      5-min Rain = 0
KME1 040325Z 00000KT 26/15 A3001 RMK A01 T02580147  RH  051%=      5-min Rain = 0
KME1 040326Z 07000KT 26/15 A3001 RMK A01 T02610145  RH  049%=      5-min Rain = 0
KME1 040327Z 07001KT 26/14 A3001 RMK A01 T02630141  RH  047%=      5-min Rain = 0
KME1 040328Z 09002KT 27/14 A3001 RMK A01 T02670141  RH  046%=      5-min Rain = 0
KME1 040329Z 09002KT 27/15 A3001 RMK A01 T02690147  RH  047%=      5-min Rain = 0
KME1 040330Z 09002KT 27/15 A3001 RMK A01 T02700153  RH  049%=      5-min Rain = 0
KME1 040331Z 09002KT 27/17 A3001 RMK A01 T02700174  RH  056%=      5-min Rain = 0
KME1 040332Z 11002KT 27/17 A3001 RMK A01 T02680173  RH  056%=      5-min Rain = 0
KME1 040333Z 10003KT 27/17 A3001 RMK A01 T02650165  RH  054%=      5-min Rain = 0
KME1 040334Z 10002KT 26/18 A3001 RMK A01 T02630176  RH  059%=      5-min Rain = 0
KME1 040335Z 10001KT 26/18 A3001 RMK A01 T02600178  RH  061%=      5-min Rain = 0
KME1 040336Z 10001KT 26/17 A3001 RMK A01 T02560173  RH  060%=      5-min Rain = 0
KME1 040337Z 09001KT 25/17 A3001 RMK A01 T02540167  RH  059%=      5-min Rain = 0
KME1 040338Z 08001KT 25/17 A3001 RMK A01 T02530169  RH  060%=      5-min Rain = 0
KME1 040339Z 08001KT 25/16 A3001 RMK A01 T02530161  RH  057%=      5-min Rain = 0
KME1 040340Z 10000KT 25/16 A3001 RMK A01 T02530164  RH  058%=      5-min Rain = 0
KME1 040341Z 09001KT 25/16 A3001 RMK A01 T02530164  RH  057%=      5-min Rain = 0
KME1 040342Z 09000KT 25/17 A3001 RMK A01 T02530166  RH  058%=      5-min Rain = 0
KME1 040343Z 00000KT 25/17 A3001 RMK A01 T02540173  RH  061%=      5-min Rain = 0
KME1 040344Z 00000KT 25/17 A3001 RMK A01 T02530174  RH  062%=      5-min Rain = 0
KME1 040345Z 00000KT 25/17 A3001 RMK A01 T02520170  RH  060%=      5-min Rain = 0
KME1 040346Z 00000KT 25/18 A3001 RMK A01 T02520178  RH  064%=      5-min Rain = 0
KME1 040347Z 00000KT 25/18 A3001 RMK A01 T02500176  RH  063%=      5-min Rain = 0
KME1 040348Z 00000KT 25/17 A3001 RMK A01 T02490174  RH  063%=      5-min Rain = 0
KME1 040349Z 00000KT 25/17 A3001 RMK A01 T02480171  RH  062%=      5-min Rain = 0
KME1 040350Z 00000KT 25/18 A3001 RMK A01 T02480179  RH  066%=      5-min Rain = 0
KME1 040351Z 00000KT 25/18 A3001 RMK A01 T02450179  RH  066%=      5-min Rain = 0
KME1 040352Z 00000KT 24/18 A3001 RMK A01 T02440183  RH  069%=      5-min Rain = 0
KME1 040353Z 00000KT 24/18 A3001 RMK A01 T02440184  RH  070%=      5-min Rain = 0
KME1 040354Z 20000KT 24/18 A3001 RMK A01 T02420176  RH  067%=      5-min Rain = 0
KME1 040355Z 22001KT 24/17 A3001 RMK A01 T02420171  RH  065%=      5-min Rain = 0
KME1 040356Z 23001KT 24/17 A3001 RMK A01 T02420174  RH  066%=      5-min Rain = 0
KME1 040357Z 22001KT 24/17 A3001 RMK A01 T02410174  RH  066%=      5-min Rain = 0
KME1 040358Z 22001KT 24/18 A3001 RMK A01 T02410177  RH  067%=      5-min Rain = 0
KME1 040359Z 22002KT 24/17 A3001 RMK A01 T02400168  RH  064%=      5-min Rain = 0
KME1 040400Z 23002KT 24/17 A3002 RMK A01 T02400169  RH  065%=      5-min Rain = 0
KME1 040401Z 21003KT 24/17 A3002 RMK A01 T02400169  RH  065%=      5-min Rain = 0
KME1 040402Z 22004KT 24/17 A3002 RMK A01 T02400168  RH  064%=      5-min Rain = 0
KME1 040403Z 23003KT 24/17 A3002 RMK A01 T02400172  RH  066%=      5-min Rain = 0
KME1 040404Z 22003KT 24/16 A3002 RMK A01 T02400162  RH  062%=      5-min Rain = 0
KME1 040405Z 23003KT 24/16 A3002 RMK A01 T02410158  RH  060%=      5-min Rain = 0
KME1 040406Z 23004KT 24/16 A3002 RMK A01 T02430156  RH  059%=      5-min Rain = 0
KME1 040407Z 23004KT 25/16 A3002 RMK A01 T02450157  RH  058%=      5-min Rain = 0
KME1 040408Z 23004KT 25/16 A3002 RMK A01 T02450159  RH  059%=      5-min Rain = 0
KME1 040409Z 22004KT 25/16 A3002 RMK A01 T02460159  RH  058%=      5-min Rain = 0
KME1 040410Z 23005KT 25/16 A3002 RMK A01 T02460158  RH  058%=      5-min Rain = 0
KME1 040411Z 23005KT 25/16 A3002 RMK A01 T02460160  RH  059%=      5-min Rain = 0
KME1 040412Z 22005KT 25/16 A3002 RMK A01 T02450161  RH  059%=      5-min Rain = 0
KME1 040413Z 22005KT 25/16 A3002 RMK A01 T02450160  RH  059%=      5-min Rain = 0
KME1 040414Z 22005KT 25/16 A3002 RMK A01 T02450158  RH  058%=      5-min Rain = 0
KME1 040415Z 22005KT 25/16 A3002 RMK A01 T02450157  RH  058%=      5-min Rain = 0
KME1 040416Z 23005KT 25/16 A3002 RMK A01 T02450157  RH  058%=      5-min Rain = 0
KME1 040417Z 23004KT 25/16 A3002 RMK A01 T02450158  RH  058%=      5-min Rain = 0
KME1 040418Z 23004KT 25/16 A3002 RMK A01 T02450158  RH  058%=      5-min Rain = 0
KME1 040419Z 25004KT 25/16 A3002 RMK A01 T02450159  RH  059%=      5-min Rain = 0
KME1 040420Z 25003KT 25/16 A3002 RMK A01 T02450162  RH  060%=      5-min Rain = 0
KME1 040421Z 25004KT 24/16 A3003 RMK A01 T02440163  RH  061%=      5-min Rain = 0
KME1 040422Z 25004KT 24/16 A3002 RMK A01 T02420163  RH  061%=      5-min Rain = 0
KME1 040423Z 25003KT 24/16 A3002 RMK A01 T02410162  RH  061%=      5-min Rain = 0
KME1 040424Z 25003KT 24/16 A3002 RMK A01 T02400161  RH  061%=      5-min Rain = 0
KME1 040425Z 25003KT 24/17 A3002 RMK A01 T02400165  RH  063%=      5-min Rain = 0
KME1 040426Z 25002KT 24/17 A3002 RMK A01 T02390172  RH  066%=      5-min Rain = 0
KME1 040427Z 26003KT 24/17 A3003 RMK A01 T02390165  RH  063%=      5-min Rain = 0
KME1 040428Z 26002KT 24/17 A3003 RMK A01 T02380169  RH  065%=      5-min Rain = 0
KME1 040429Z 25002KT 24/17 A3003 RMK A01 T02380174  RH  068%=      5-min Rain = 0
KME1 040430Z 25003KT 24/18 A3003 RMK A01 T02380183  RH  071%=      5-min Rain = 0
KME1 040431Z 24002KT 24/18 A3003 RMK A01 T02380183  RH  071%=      5-min Rain = 0
KME1 040432Z 24002KT 24/18 A3003 RMK A01 T02360182  RH  071%=      5-min Rain = 0
KME1 040433Z 24002KT 24/18 A3003 RMK A01 T02350181  RH  072%=      5-min Rain = 0
KME1 040434Z 24001KT 23/18 A3003 RMK A01 T02340181  RH  072%=      5-min Rain = 0
KME1 040435Z 24001KT 23/18 A3003 RMK A01 T02330182  RH  073%=      5-min Rain = 0
KME1 040436Z 25001KT 23/18 A3003 RMK A01 T02320183  RH  074%=      5-min Rain = 0
KME1 040437Z 25002KT 23/19 A3003 RMK A01 T02310186  RH  076%=      5-min Rain = 0
KME1 040438Z 24003KT 23/19 A3003 RMK A01 T02300187  RH  077%=      5-min Rain = 0
KME1 040439Z 25002KT 23/19 A3003 RMK A01 T02290187  RH  077%=      5-min Rain = 0
KME1 040440Z 24002KT 23/18 A3003 RMK A01 T02270184  RH  077%=      5-min Rain = 0
KME1 040441Z 24002KT 23/18 A3003 RMK A01 T02250184  RH  078%=      5-min Rain = 0
KME1 040442Z 23002KT 22/18 A3003 RMK A01 T02240184  RH  078%=      5-min Rain = 0
KME1 040443Z 22002KT 22/18 A3003 RMK A01 T02220181  RH  077%=      5-min Rain = 0
KME1 040444Z 21001KT 22/18 A3003 RMK A01 T02210183  RH  079%=      5-min Rain = 0
KME1 040445Z 20001KT 22/18 A3003 RMK A01 T02210183  RH  079%=      5-min Rain = 0
KME1 040446Z 18001KT 22/18 A3003 RMK A01 T02200180  RH  078%=      5-min Rain = 0
KME1 040447Z 14002KT 22/18 A3003 RMK A01 T02200181  RH  079%=      5-min Rain = 0
KME1 040448Z 13003KT 22/18 A3003 RMK A01 T02190184  RH  080%=      5-min Rain = 0
KME1 040449Z 17002KT 22/18 A3003 RMK A01 T02160179  RH  079%=      5-min Rain = 0
KME1 040450Z 21002KT 22/18 A3003 RMK A01 T02150176  RH  078%=      5-min Rain = 0
KME1 040451Z 22003KT 22/17 A3003 RMK A01 T02150173  RH  077%=      5-min Rain = 0
KME1 040452Z 23003KT 22/18 A3003 RMK A01 T02170175  RH  077%=      5-min Rain = 0
KME1 040453Z 22004KT 22/18 A3003 RMK A01 T02200176  RH  076%=      5-min Rain = 0
KME1 040454Z 22003KT 22/18 A3003 RMK A01 T02220177  RH  076%=      5-min Rain = 0
KME1 040455Z 21003KT 22/18 A3003 RMK A01 T02230175  RH  074%=      5-min Rain = 0
KME1 040456Z 21003KT 22/17 A3003 RMK A01 T02230172  RH  073%=      5-min Rain = 0
KME1 040457Z 20002KT 22/17 A3003 RMK A01 T02240174  RH  073%=      5-min Rain = 0
KME1 040458Z 20002KT 22/18 A3003 RMK A01 T02240175  RH  074%=      5-min Rain = 0
KME1 040459Z 19001KT 22/18 A3003 RMK A01 T02240176  RH  074%=      5-min Rain = 0

Page generated in 0.1198 seconds.